Flight Track Log - Related Links

Times and Time Zones

All times are in EDT time to prevent confusion due to time zone crossing. See the VH-OEJ flight status page for this flight to view local times or setup timezone preferences in your user account.

Time Position Orientation Groundspeed Altitude Reporting Facility
EDT Latitude Longitude Course Direction KTS MPH feet Rate Location/Type
Tue 11:44:55 PM -33.9340 151.1690 North 2 2  Level FlightAware ADS-B
Tue 11:50:30 PM -33.9310 151.1690 360° North 7 8 51 Level FlightAware ADS-B
Tue 11:51:15 PM -33.9300 151.1690 360° North 6 7 98 Level FlightAware ADS-B
Tue 11:53:00 PM -33.8471 151.4491 70° East  Level Estimated
Tue 11:54:00 PM -33.7995 151.6089 70° East  Level Estimated
Tue 11:55:00 PM -33.7517 151.7686 70° East  Level Estimated
Tue 11:55:10 PM -33.9300 151.1710 70° East 8 9  Level FlightAware ADS-B
Tue 11:55:50 PM -33.9360 151.1730 165° South 98 113 419 Level FlightAware ADS-B
Tue 11:56:36 PM -33.9700 151.1820 168° South 181 208 600 1,125 Climbing FlightAware ADS-B
Tue 11:57:10 PM -33.9970 151.1840 176° South 181 208 1,500 1,385 Climbing FlightAware ADS-B
Tue 11:57:28 PM -34.0140 151.1830 183° South 188 216 1,800 1,313 Climbing FlightAware ADS-B
Tue 11:58:14 PM -34.0636 151.1848 183° South 227 261 2,900 1,102 Climbing Aus ATC (RADAR)
Tue 11:58:17 PM -34.0630 151.1850 183° South 223 257 2,700 333 Descending FlightAware ADS-B
Tue 11:58:32 PM -34.0830 151.1880 173° South 254 292 3,000 1,200 Climbing FlightAware ADS-B
Tue 11:58:42 PM -34.0930 151.1960 146° Southeast 262 302 3,200 1,615 Climbing FlightAware ADS-B
Tue 11:58:58 PM -34.1040 151.2150 125° Southeast 278 320 3,700 2,000 Climbing FlightAware ADS-B
Tue 11:59:12 PM -34.1080 151.2390 101° East 289 333 4,200 2,045 Climbing FlightAware ADS-B
Tue 11:59:42 PM -34.1140 151.2860 99° East 300 345 5,200 1,527 Climbing FlightAware ADS-B
Wed 12:00:07 AM -34.1090 151.3310 82° East 332 382 5,600 1,636 Climbing FlightAware ADS-B
Wed 12:00:37 AM -34.0740 151.3710 43° Northeast 354 407 6,700 2,341 Climbing FlightAware ADS-B
Wed 12:00:48 AM -34.0600 151.3800 28° Northeast 355 409 7,200 2,526 Climbing FlightAware ADS-B
Wed 12:01:15 AM -34.0230 151.4060 30° Northeast 361 415 8,300 2,591 Climbing FlightAware ADS-B
Wed 12:01:32 AM -34.0000 151.4320 43° Northeast 357 411 9,100 2,298 Climbing FlightAware ADS-B
Wed 12:02:02 AM -33.9780 151.4880 65° Northeast 363 418 10,100 1,364 Climbing FlightAware ADS-B
Wed 12:02:38 AM -33.9680 151.5610 81° East 386 444 10,600 1,125 Climbing FlightAware ADS-B
Wed 12:03:22 AM -33.9560 151.6600 81° East 416 479 11,600 1,733 Climbing FlightAware ADS-B
Wed 12:03:23 AM -33.9556 151.6672 81° East 409 471 11,900 1,814 Climbing Aus ATC (RADAR)
Wed 12:04:05 AM -33.9450 151.7580 82° East 426 490 12,900 1,704 Climbing FlightAware ADS-B
Wed 12:04:44 AM -33.9340 151.8480 82° East 435 501 14,200 2,127 Climbing FlightAware ADS-B
Wed 12:05:24 AM -33.9210 151.9520 81° East 442 509 15,700 2,189 Climbing FlightAware ADS-B
Wed 12:05:58 AM -33.9110 152.0369 81° East 437 503 16,900 1,733 Climbing Aus ATC (RADAR)
Wed 12:06:09 AM -33.9090 152.0640 81° East 454 522 17,000 1,474 Climbing FlightAware ADS-B
Wed 12:06:55 AM -33.9070 152.1740 89° East 464 534 18,300 2,024 Climbing FlightAware ADS-B
Wed 12:07:32 AM -33.9079 152.2805 89° East 454 522 19,800 1,950 Climbing Aus ATC (RADAR)
Wed 12:07:35 AM -33.9080 152.2830 89° East 469 540 19,600 1,067 Descending FlightAware ADS-B
Wed 12:08:17 AM -33.9080 152.3880 90° East 474 545 20,600 1,465 Climbing FlightAware ADS-B
Wed 12:09:01 AM -33.9090 152.5060 91° East 488 562 21,700 1,765 Climbing FlightAware ADS-B
Wed 12:09:42 AM -33.9097 152.6313 91° East 489 563 23,100 1,636 Climbing Aus ATC (RADAR)
Wed 12:09:45 AM -33.9100 152.6290 91° East 496 571 22,900 840 Descending FlightAware ADS-B
Wed 12:10:32 AM -33.8920 152.7610 91° East 507 583 23,800 1,500 Climbing FlightAware ADS-B
Wed 12:10:37 AM -33.8855 152.7810 91° East 501 577 24,200 1,125 Climbing Aus ATC (RADAR)
Wed 12:11:36 AM -33.8330 152.9250 67° East 524 603 25,000 816 Climbing FlightAware ADS-B
Wed 12:12:20 AM -33.7880 153.0500 67° East 540 621 25,600 963 Climbing FlightAware ADS-B
Wed 12:12:57 AM -33.7494 153.1602 67° East 546 628 26,300 789 Climbing Aus ATC (RADAR)
Wed 12:12:58 AM -33.7510 153.1530 67° East 550 633 26,100 1,200 Descending FlightAware ADS-B
Wed 12:13:32 AM -33.7148 153.2596 67° East 555 639 27,000 1,174 Climbing Aus ATC (RADAR)
Wed 12:13:44 AM -33.7060 153.2840 67° East 558 642 27,000 750 Level FlightAware ADS-B
Wed 12:14:20 AM -33.6690 153.3900 67° East 562 647 27,600 1,120 Climbing FlightAware ADS-B
Wed 12:14:59 AM -33.6300 153.4990 67° East 564 649 28,400 1,571 Climbing FlightAware ADS-B
Wed 12:15:02 AM -33.6245 153.5152 67° East 547 629 28,700 800 Climbing Aus ATC (RADAR)
Wed 12:15:44 AM -33.5830 153.6320 67° East 569 655 29,000 202 Climbing FlightAware ADS-B
Wed 12:16:31 AM -33.5350 153.7660 67° East 573 659 29,000  Level FlightAware ADS-B
Wed 12:17:07 AM -33.5020 153.8600 67° East 573 659 29,000 182 Level FlightAware ADS-B
Wed 12:17:37 AM -33.4630 153.9673 67° East 569 655 29,200  Climbing Aus ATC (RADAR)
Wed 12:17:53 AM -33.4490 154.0050 67° East 572 658 29,000  Descending FlightAware ADS-B
Wed 12:18:27 AM -33.4103 154.1130 67° East 572 658 29,200  Climbing Aus ATC (RADAR)
Wed 12:18:34 AM -33.4060 154.1250 67° East 573 659 29,000 -273 Descending FlightAware ADS-B
Wed 12:19:11 AM -33.3700 154.2240 66° East 575 662 29,000  Level FlightAware ADS-B
Wed 12:19:59 AM -33.3180 154.3670 66° East 578 665 29,000 235 Level FlightAware ADS-B
Wed 12:20:02 AM -33.3091 154.3903 66° East 577 664 29,200  Climbing Aus ATC (RADAR)
Wed 12:20:35 AM -33.2770 154.4760 66° East 582 670 29,000 -158 Descending FlightAware ADS-B
Wed 12:21:18 AM -33.2250 154.5990 63° Northeast 582 670 29,000  Level FlightAware ADS-B
Wed 12:22:21 AM -33.1510 154.7620 62° Northeast 583 671 29,000 53 Level FlightAware ADS-B
Wed 12:23:11 AM -33.0740 154.9330 62° Northeast 585 673 29,100  Climbing Aus ATC (RADAR)
Wed 12:23:44 AM -33.0610 154.9630 62° Northeast 587 676 29,000 -80 Descending FlightAware ADS-B
Wed 12:24:26 AM -33.0170 155.0570 61° Northeast 587 676 29,000  Level FlightAware ADS-B
Wed 12:25:02 AM -32.9770 155.1440 61° Northeast 587 676 29,000  Level FlightAware ADS-B
Wed 12:25:52 AM -32.9210 155.2640 61° Northeast 587 676 29,000  Level FlightAware ADS-B
Wed 12:26:28 AM -32.8800 155.3510 61° Northeast 587 676 29,000  Level FlightAware ADS-B
Wed 12:27:16 AM -32.8270 155.4660 61° Northeast 587 676 29,000 72 Level FlightAware ADS-B
Wed 12:27:51 AM -32.7023 155.7316 61° Northeast 598 688 29,100 14 Climbing Aus ATC (RADAR)
Wed 12:33:36 AM -32.1915 156.8110 59° Northeast 29,000 14 Descending Aus ATC (Calculated)
Wed 12:35:00 AM -32.1111 157.0385 67° East  Level Estimated
Wed 12:36:00 AM -32.0535 157.2008 67° East  Level Estimated
Wed 12:37:00 AM -31.9957 157.3629 67° East  Level Estimated
Wed 12:38:00 AM -31.9377 157.5248 67° East  Level Estimated
Wed 12:38:35 AM -31.7127 157.8050 58° Northeast 29,000  Level Aus ATC (Calculated)
Wed 12:39:00 AM -31.8795 157.6865 67° East  Level Estimated
Wed 12:40:00 AM -31.6294 158.0330 67° East  Level Estimated
Wed 12:41:00 AM -31.5704 158.1938 67° East  Level Estimated
Wed 12:42:00 AM -31.5112 158.3543 67° East  Level Estimated
Wed 12:43:00 AM -31.4518 158.5147 67° East  Level Estimated
Wed 12:43:35 AM -31.2614 158.7184 58° Northeast 29,000  Level Aus ATC (Calculated)
Wed 12:44:00 AM -31.3922 158.6748 66° East  Level Estimated
Wed 12:45:00 AM -31.1764 158.9445 66° East  Level Estimated
Wed 12:45:21 AM -31.0899 159.0600 58° Northeast 29,000  Level Aus ATC (Calculated)
Wed 12:45:59 AM -31.0264 159.1856 58° Northeast 29,000 15 Level Aus ATC (Calculated)
Wed 12:47:00 AM -30.9648 159.3472 66° East  Level Estimated
Wed 12:48:00 AM -30.9039 159.5059 66° East  Level Estimated
Wed 12:48:34 AM -30.7851 159.6595 57° Northeast 29,000  Level Aus ATC (Calculated)
Wed 12:50:00 AM -30.6972 159.8862 66° East  Level Estimated
Wed 12:51:00 AM -30.6356 160.0441 66° East  Level Estimated
Wed 12:52:00 AM -30.5739 160.2017 66° East  Level Estimated
Wed 12:52:00 AM -30.4569 160.2949 57° Northeast 29,000  Level Aus ATC (Calculated)
Wed 12:53:00 AM -30.5119 160.3592 65° Northeast  Level Estimated
Wed 12:53:59 AM -30.2821 160.6293 57° Northeast 29,000  Level Aus ATC (Calculated)
Wed 12:54:00 AM -30.3325 160.6091 65° Northeast  Level Estimated
Wed 12:55:00 AM -30.2185 160.7885 65° Northeast  Level Estimated
Wed 12:56:00 AM -30.1557 160.9450 65° Northeast  Level Estimated
Wed 12:57:00 AM -30.0928 161.1012 65° Northeast  Level Estimated
Wed 12:58:00 AM -30.0296 161.2573 65° Northeast  Level Estimated
Wed 12:58:33 AM -29.8462 161.4510 56° Northeast 29,000  Level Aus ATC (Calculated)
Wed 01:00:00 AM -29.7539 161.6762 65° Northeast  Level Estimated
Wed 01:01:00 AM -29.6900 161.8313 65° Northeast  Level Estimated
Wed 01:02:00 AM -29.6259 161.9863 65° Northeast  Level Estimated
Wed 01:03:00 AM -29.5616 162.1410 65° Northeast  Level Estimated
Wed 01:03:33 AM -29.3724 162.3255 56° Northeast 29,000  Level Aus ATC (Calculated)
Wed 01:04:00 AM -29.3260 162.4101 56° Northeast 29,000 16 Level Aus ATC (Calculated)
Wed 01:04:45 AM -29.2447 162.5579 56° Northeast 29,000 16 Level Aus ATC (Calculated)
Wed 01:05:00 AM -29.2612 162.5640 64° Northeast  Level Estimated
Wed 01:06:00 AM -29.1634 162.7500 64° Northeast  Level Estimated
Wed 01:06:00 AM -29.1225 162.7792 56° Northeast 29,000  Level Aus ATC (Calculated)
Wed 01:06:46 AM -29.0307 162.9449 56° Northeast 29,000 16 Level Aus ATC (Calculated)
Wed 01:07:00 AM -29.0572 162.9326 64° Northeast  Level Estimated
Wed 01:08:00 AM -28.9498 163.1337 64° Northeast  Level Estimated
Wed 01:09:00 AM -28.8841 163.2865 64° Northeast  Level Estimated
Wed 01:09:00 AM -28.8455 163.3316 55° Northeast 29,000  Level Aus ATC (Calculated)
Wed 01:09:42 AM -28.7893 163.4481 55° Northeast 29,000 17 Level Aus ATC (Calculated)
Wed 01:10:00 AM -28.7795 163.4841 64° Northeast  Level Estimated
Wed 01:11:00 AM -28.7033 163.6462 64° Northeast  Level Estimated
Wed 01:12:00 AM -28.6370 163.7984 64° Northeast  Level Estimated
Wed 01:12:00 AM -28.5707 163.8985 55° Northeast 29,000  Level Aus ATC (Calculated)
Wed 01:12:00 AM -28.5707 163.8985 55° Northeast 29,000 17 Level Aus ATC (Calculated)
Wed 01:13:00 AM -28.5041 164.0503 63° Northeast  Level Estimated
Wed 01:14:00 AM -28.4373 164.2019 63° Northeast  Level Estimated
Wed 01:15:00 AM -28.3703 164.3533 63° Northeast  Level Estimated
Wed 01:16:00 AM -28.3031 164.5045 63° Northeast  Level Estimated
Wed 01:17:00 AM -28.2358 164.6556 63° Northeast  Level Estimated
Wed 01:18:00 AM -28.1683 164.8064 63° Northeast  Level Estimated
Wed 01:19:00 AM -28.1006 164.9571 63° Northeast  Level Estimated
Wed 01:20:00 AM -28.0328 165.1076 63° Northeast  Level Estimated
Wed 01:21:00 AM -27.9648 165.2579 63° Northeast  Level Estimated
Wed 01:22:00 AM -27.8967 165.4079 63° Northeast  Level Estimated
Wed 01:23:00 AM -27.8284 165.5578 63° Northeast  Level Estimated
Wed 01:24:00 AM -27.7599 165.7076 63° Northeast  Level Estimated
Wed 01:25:00 AM -27.6913 165.8571 63° Northeast  Level Estimated
Wed 01:26:00 AM -27.6225 166.0064 63° Northeast  Level Estimated
Wed 01:27:00 AM -27.5536 166.1556 62° Northeast  Level Estimated
Wed 01:28:00 AM -27.4845 166.3045 62° Northeast  Level Estimated
Wed 01:29:00 AM -27.4152 166.4533 62° Northeast  Level Estimated
Wed 01:30:00 AM -27.3458 166.6019 62° Northeast  Level Estimated
Wed 01:31:00 AM -27.2762 166.7503 62° Northeast  Level Estimated
Wed 01:32:00 AM -27.2065 166.8985 62° Northeast  Level Estimated
Wed 01:33:00 AM -27.1366 167.0465 62° Northeast  Level Estimated
Wed 01:34:00 AM -27.0665 167.1944 62° Northeast  Level Estimated
Wed 01:35:00 AM -26.9963 167.3420 62° Northeast  Level Estimated
Wed 01:36:00 AM -26.9260 167.4895 62° Northeast  Level Estimated
Wed 01:37:00 AM -26.8555 167.6368 62° Northeast  Level Estimated
Wed 01:38:00 AM -26.7848 167.7839 62° Northeast  Level Estimated
Wed 01:39:00 AM -26.7140 167.9308 62° Northeast  Level Estimated
Wed 01:40:00 AM -26.6430 168.0775 62° Northeast  Level Estimated
Wed 01:41:00 AM -26.5719 168.2241 62° Northeast  Level Estimated
Wed 01:42:00 AM -26.5007 168.3705 61° Northeast  Level Estimated
Wed 01:43:00 AM -26.4293 168.5167 61° Northeast  Level Estimated
Wed 01:44:00 AM -26.3577 168.6627 61° Northeast  Level Estimated
Wed 01:45:00 AM -26.2860 168.8085 61° Northeast  Level Estimated
Wed 01:46:00 AM -26.2141 168.9542 61° Northeast  Level Estimated
Wed 01:47:00 AM -26.1421 169.0996 61° Northeast  Level Estimated
Wed 01:48:00 AM -26.0700 169.2449 61° Northeast  Level Estimated
Wed 01:49:00 AM -25.9977 169.3900 61° Northeast  Level Estimated
Wed 01:50:00 AM -25.9253 169.5350 61° Northeast  Level Estimated
Wed 01:51:00 AM -25.8527 169.6797 61° Northeast  Level Estimated
Wed 01:52:00 AM -25.7800 169.8243 61° Northeast  Level Estimated
Wed 01:53:00 AM -25.7071 169.9687 61° Northeast  Level Estimated
Wed 01:54:00 AM -25.6341 170.1129 61° Northeast  Level Estimated
Wed 01:55:00 AM -25.5609 170.2570 61° Northeast  Level Estimated
Wed 01:56:00 AM -25.4876 170.4008 61° Northeast  Level Estimated
Wed 01:57:00 AM -25.4142 170.5445 61° Northeast  Level Estimated
Wed 01:58:00 AM -25.3406 170.6881 60° Northeast  Level Estimated
Wed 01:59:00 AM -25.2669 170.8314 60° Northeast  Level Estimated
Wed 02:00:00 AM -25.1931 170.9746 60° Northeast  Level Estimated
Wed 02:01:00 AM -25.1191 171.1176 60° Northeast  Level Estimated
Wed 02:02:00 AM -25.0450 171.2604 60° Northeast  Level Estimated
Wed 02:03:00 AM -24.9707 171.4030 60° Northeast  Level Estimated
Wed 02:04:00 AM -24.8963 171.5455 60° Northeast  Level Estimated
Wed 02:05:00 AM -24.8218 171.6878 60° Northeast  Level Estimated
Wed 02:06:00 AM -24.7471 171.8300 60° Northeast  Level Estimated
Wed 02:07:00 AM -24.6723 171.9720 60° Northeast  Level Estimated
Wed 02:08:00 AM -24.5974 172.1138 60° Northeast  Level Estimated
Wed 02:09:00 AM -24.5223 172.2554 60° Northeast  Level Estimated
Wed 02:10:00 AM -24.4471 172.3968 60° Northeast  Level Estimated
Wed 02:11:00 AM -24.3718 172.5381 60° Northeast  Level Estimated
Wed 02:12:00 AM -24.2963 172.6792 60° Northeast  Level Estimated
Wed 02:13:00 AM -24.2208 172.8202 60° Northeast  Level Estimated
Wed 02:14:00 AM -24.1450 172.9610 60° Northeast  Level Estimated
Wed 02:15:00 AM -24.0692 173.1016 59° Northeast  Level Estimated
Wed 02:16:00 AM -23.9932 173.2421 59° Northeast  Level Estimated
Wed 02:17:00 AM -23.9171 173.3823 59° Northeast  Level Estimated
Wed 02:18:00 AM -23.8409 173.5225 59° Northeast  Level Estimated
Wed 02:19:00 AM -23.7645 173.6624 59° Northeast  Level Estimated
Wed 02:20:00 AM -23.6880 173.8022 59° Northeast  Level Estimated
Wed 02:21:00 AM -23.6114 173.9418 59° Northeast  Level Estimated
Wed 02:22:00 AM -23.5347 174.0813 59° Northeast  Level Estimated
Wed 02:23:00 AM -23.4578 174.2206 59° Northeast  Level Estimated
Wed 02:24:00 AM -23.3808 174.3597 59° Northeast  Level Estimated
Wed 02:25:00 AM -23.3037 174.4987 59° Northeast  Level Estimated
Wed 02:26:00 AM -23.2265 174.6375 59° Northeast  Level Estimated
Wed 02:27:00 AM -23.1492 174.7762 59° Northeast  Level Estimated
Wed 02:28:00 AM -23.0717 174.9147 59° Northeast  Level Estimated
Wed 02:29:00 AM -22.9941 175.0530 59° Northeast  Level Estimated
Wed 02:30:00 AM -22.9164 175.1912 59° Northeast  Level Estimated
Wed 02:31:00 AM -22.8386 175.3292 59° Northeast  Level Estimated
Wed 02:32:00 AM -22.7606 175.4671 59° Northeast  Level Estimated
Wed 02:33:00 AM -22.6826 175.6048 58° Northeast  Level Estimated
Wed 02:34:00 AM -22.6044 175.7423 58° Northeast  Level Estimated
Wed 02:35:00 AM -22.5261 175.8797 58° Northeast  Level Estimated
Wed 02:36:00 AM -22.4477 176.0170 58° Northeast  Level Estimated
Wed 02:37:00 AM -22.3691 176.1540 58° Northeast  Level Estimated
Wed 02:38:00 AM -22.2905 176.2910 58° Northeast  Level Estimated
Wed 02:39:00 AM -22.2117 176.4277 58° Northeast  Level Estimated
Wed 02:40:00 AM -22.1328 176.5643 58° Northeast  Level Estimated
Wed 02:41:00 AM -22.0538 176.7008 58° Northeast  Level Estimated
Wed 02:42:00 AM -21.9747 176.8371 58° Northeast  Level Estimated
Wed 02:43:00 AM -21.8955 176.9733 58° Northeast  Level Estimated
Wed 02:44:00 AM -21.8162 177.1093 58° Northeast  Level Estimated
Wed 02:45:00 AM -21.7367 177.2451 58° Northeast  Level Estimated
Wed 02:46:00 AM -21.6572 177.3809 58° Northeast  Level Estimated
Wed 02:47:00 AM -21.5775 177.5164 58° Northeast  Level Estimated
Wed 02:48:00 AM -21.4978 177.6518 58° Northeast  Level Estimated
Wed 02:49:00 AM -21.4179 177.7871 58° Northeast  Level Estimated
Wed 02:50:00 AM -21.3379 177.9222 58° Northeast  Level Estimated
Wed 02:51:00 AM -21.2578 178.0572 58° Northeast  Level Estimated
Wed 02:52:00 AM -21.1776 178.1920 57° Northeast  Level Estimated
Wed 02:53:00 AM -21.0973 178.3266 57° Northeast  Level Estimated
Wed 02:54:00 AM -21.0169 178.4612 57° Northeast  Level Estimated
Wed 02:55:00 AM -20.9364 178.5956 57° Northeast  Level Estimated
Wed 02:56:00 AM -20.8557 178.7298 57° Northeast  Level Estimated
Wed 02:57:00 AM -20.7750 178.8639 57° Northeast  Level Estimated
Wed 02:58:00 AM -20.6942 178.9978 57° Northeast  Level Estimated
Wed 02:59:00 AM -20.6132 179.1317 57° Northeast  Level Estimated
Wed 03:00:00 AM -20.5322 179.2653 57° Northeast  Level Estimated
Wed 03:01:00 AM -20.4510 179.3988 57° Northeast  Level Estimated
Wed 03:02:00 AM -20.3698 179.5322 57° Northeast  Level Estimated
Wed 03:03:00 AM -20.2885 179.6655 57° Northeast  Level Estimated
Wed 03:04:00 AM -20.2070 179.7986 57° Northeast  Level Estimated
Wed 03:05:00 AM -20.1255 179.9315 57° Northeast  Level Estimated
Wed 03:06:00 AM -20.0438 -179.9357 57° Northeast  Level Estimated
Wed 03:07:00 AM -19.9621 -179.8030 57° Northeast  Level Estimated
Wed 03:08:00 AM -19.8802 -179.6704 57° Northeast  Level Estimated
Wed 03:09:00 AM -19.7983 -179.5380 57° Northeast  Level Estimated
Wed 03:10:00 AM -19.7162 -179.4058 57° Northeast  Level Estimated
Wed 03:11:00 AM -19.6341 -179.2736 57° Northeast  Level Estimated
Wed 03:12:00 AM -19.5539 -179.1448 57° Northeast  Level Estimated
Wed 03:13:00 AM -19.4735 -179.0161 57° Northeast  Level Estimated
Wed 03:14:00 AM -19.3931 -178.8876 56° Northeast  Level Estimated
Wed 03:15:00 AM -19.3126 -178.7592 56° Northeast  Level Estimated
Wed 03:16:00 AM -19.2320 -178.6309 56° Northeast  Level Estimated
Wed 03:17:00 AM -19.1513 -178.5027 56° Northeast  Level Estimated
Wed 03:18:00 AM -19.0705 -178.3746 56° Northeast  Level Estimated
Wed 03:19:00 AM -18.9897 -178.2467 56° Northeast  Level Estimated
Wed 03:20:00 AM -18.9087 -178.1189 56° Northeast  Level Estimated
Wed 03:21:00 AM -18.8277 -177.9913 56° Northeast  Level Estimated
Wed 03:22:00 AM -18.7465 -177.8637 56° Northeast  Level Estimated
Wed 03:23:00 AM -18.6653 -177.7363 56° Northeast  Level Estimated
Wed 03:24:00 AM -18.5840 -177.6090 56° Northeast  Level Estimated
Wed 03:25:00 AM -18.5026 -177.4818 56° Northeast  Level Estimated
Wed 03:26:00 AM -18.4212 -177.3547 56° Northeast  Level Estimated
Wed 03:27:00 AM -18.3396 -177.2278 56° Northeast  Level Estimated
Wed 03:28:00 AM -18.2579 -177.1010 56° Northeast  Level Estimated
Wed 03:29:00 AM -18.1762 -176.9743 56° Northeast  Level Estimated
Wed 03:30:00 AM -18.0944 -176.8477 56° Northeast  Level Estimated
Wed 03:31:00 AM -18.0125 -176.7212 56° Northeast  Level Estimated
Wed 03:32:00 AM -17.9306 -176.5949 56° Northeast  Level Estimated
Wed 03:33:00 AM -17.8485 -176.4686 56° Northeast  Level Estimated
Wed 03:34:00 AM -17.7664 -176.3425 56° Northeast  Level Estimated
Wed 03:35:00 AM -17.6842 -176.2165 56° Northeast  Level Estimated
Wed 03:36:00 AM -17.6019 -176.0906 56° Northeast  Level Estimated
Wed 03:37:00 AM -17.5195 -175.9649 56° Northeast  Level Estimated
Wed 03:38:00 AM -17.4371 -175.8392 55° Northeast  Level Estimated
Wed 03:39:00 AM -17.3545 -175.7137 55° Northeast  Level Estimated
Wed 03:40:00 AM -17.2719 -175.5882 55° Northeast  Level Estimated
Wed 03:41:00 AM -17.1892 -175.4629 55° Northeast  Level Estimated
Wed 03:42:00 AM -17.1065 -175.3377 55° Northeast  Level Estimated
Wed 03:43:00 AM -17.0236 -175.2126 55° Northeast  Level Estimated
Wed 03:44:00 AM -16.9407 -175.0876 55° Northeast  Level Estimated
Wed 03:45:00 AM -16.8577 -174.9628 55° Northeast  Level Estimated
Wed 03:46:00 AM -16.7746 -174.8380 55° Northeast  Level Estimated
Wed 03:47:00 AM -16.6915 -174.7134 55° Northeast  Level Estimated
Wed 03:48:00 AM -16.6083 -174.5888 55° Northeast  Level Estimated
Wed 03:49:00 AM -16.5250 -174.4644 55° Northeast  Level Estimated
Wed 03:50:00 AM -16.4416 -174.3400 55° Northeast  Level Estimated
Wed 03:51:00 AM -16.3582 -174.2158 55° Northeast  Level Estimated
Wed 03:52:00 AM -16.2747 -174.0917 55° Northeast  Level Estimated
Wed 03:52:09 AM -13.7500 -174.8500 55° Northeast 542 624  Level New Zealand
Wed 03:53:00 AM -16.1911 -173.9677 55° Northeast  Level Estimated
Wed 03:54:00 AM -16.1074 -173.8438 55° Northeast  Level Estimated
Wed 03:54:09 AM -13.5500 -174.6167 49° Northeast 542 624  Level New Zealand
Wed 03:56:09 AM -13.3500 -174.3833 49° Northeast 542 624 433 Level New Zealand
Wed 03:58:09 AM -13.1500 -174.1667 47° Northeast 542 624 444 Level New Zealand
Wed 04:00:10 AM -12.9333 -173.9333 46° Northeast 540 621 457 Level New Zealand
Wed 04:02:10 AM -12.7167 -173.7167 44° Northeast 539 620 470 Level New Zealand
Wed 04:04:10 AM -12.5000 -173.5000 44° Northeast 539 620 484 Level New Zealand
Wed 04:06:10 AM -12.2833 -173.2833 44° Northeast 539 620 498 Level New Zealand
Wed 04:08:10 AM -12.0833 -173.0833 44° Northeast 539 620 514 Level New Zealand
Wed 04:10:10 AM -11.8500 -172.8667 42° Northeast 539 620 530 Level New Zealand
Wed 04:12:10 AM -11.6167 -172.6667 40° Northeast 539 620 548 Level New Zealand
Wed 04:14:10 AM -11.4000 -172.4667 42° Northeast 539 620 567 Level New Zealand
Wed 04:16:10 AM -11.1667 -172.2667 40° Northeast 539 620 587 Level New Zealand
Wed 04:18:10 AM -10.9333 -172.0667 40° Northeast 539 620 608 Level New Zealand
Wed 04:20:10 AM -10.7167 -171.8667 42° Northeast 539 620 632 Level New Zealand
Wed 04:22:10 AM -10.4833 -171.6667 40° Northeast 539 620 657 Level New Zealand
Wed 04:24:10 AM -10.2167 -171.4333 41° Northeast 535 616 684 Level New Zealand
Wed 04:26:10 AM -9.9833 -171.2500 38° Northeast 535 616 714 Level New Zealand
Wed 04:28:10 AM -9.7667 -171.0500 42° Northeast 535 616 746 Level New Zealand
Wed 04:30:10 AM -9.5333 -170.8500 40° Northeast 535 616 781 Level New Zealand
Wed 04:32:10 AM -9.3000 -170.6500 40° Northeast 535 616 820 Level New Zealand
Wed 04:34:10 AM -9.0833 -170.4667 40° Northeast 535 616 863 Level New Zealand
Wed 04:36:10 AM -8.8500 -170.2667 40° Northeast 535 616 910 Level New Zealand
Wed 04:38:10 AM -8.6333 -170.0667 42° Northeast 535 616 964 Level New Zealand
Wed 04:40:10 AM -8.4000 -169.8833 38° Northeast 535 616 1,023 Level New Zealand
Wed 04:42:10 AM -8.1667 -169.6833 40° Northeast 535 616 1,091 Level New Zealand
Wed 04:44:10 AM -7.9167 -169.4500 43° Northeast 535 616 1,168 Level New Zealand
Wed 04:46:10 AM -7.6833 -169.2667 38° Northeast 535 616 1,257 Level New Zealand
Wed 04:48:10 AM -7.4500 -169.0667 40° Northeast 535 616 1,361 Level New Zealand
Wed 04:50:10 AM -7.2167 -168.8833 38° Northeast 535 616 1,483 Level New Zealand
Wed 04:52:10 AM -7.0000 -168.6833 43° Northeast 535 616 1,630 Level New Zealand
Wed 04:54:10 AM -6.7667 -168.4833 40° Northeast 535 616 1,808 Level New Zealand
Wed 04:56:10 AM -6.5333 -168.3000 38° Northeast 535 616 2,031 Level New Zealand
Wed 04:58:10 AM -6.3167 -168.1000 43° Northeast 535 616 2,316 Level New Zealand
Wed 05:00:14 AM -6.0667 -167.9000 39° Northeast 535 616 2,694 Level New Zealand
Wed 05:02:14 AM -5.8500 -167.7167 40° Northeast 535 616 3,241 Level New Zealand
Wed 05:04:14 AM -5.6167 -167.5167 40° Northeast 535 616 4,033 Level New Zealand
Wed 05:06:14 AM -5.3667 -167.3000 41° Northeast 532 612 5,337 Level New Zealand
Wed 05:08:14 AM -5.1333 -167.1167 38° Northeast 532 612 7,888 Level New Zealand
Wed 05:10:25 AM -4.9500 -166.9667 41° Northeast 521 600 33,000 13,655 Climbing Oakland Oceanic (ODAPS)
Wed 05:10:39 AM -4.8833 -166.9000 220° Southwest 509 586 33,000  Level Oakland Oceanic (ODAPS)
Wed 05:16:00 AM -4.5492 -166.6109 41° Northeast 509 586 33,000  Level FlightAware Transoceanic
Wed 05:17:00 AM -4.4365 -166.5138 41° Northeast 509 586 33,000  Level FlightAware Transoceanic
Wed 05:18:00 AM -4.3238 -166.4166 41° Northeast 509 586 33,000  Level FlightAware Transoceanic
Wed 05:19:00 AM -4.2110 -166.3195 41° Northeast 509 586 33,000  Level FlightAware Transoceanic
Wed 05:20:00 AM -4.0982 -166.2224 41° Northeast 509 586 33,000  Level FlightAware Transoceanic
Wed 05:21:00 AM -3.9855 -166.1253 41° Northeast 509 586 33,000  Level FlightAware Transoceanic
Wed 05:22:00 AM -3.8727 -166.0283 41° Northeast 509 586 33,000  Level FlightAware Transoceanic
Wed 05:23:00 AM -3.7599 -165.9313 41° Northeast 509 586 33,000  Level FlightAware Transoceanic
Wed 05:24:00 AM -3.6471 -165.8343 41° Northeast 509 586 33,000  Level FlightAware Transoceanic
Wed 05:24:31 AM -3.3667 -165.5833 41° Northeast 511 588 33,000  Level Oakland Oceanic (ODAPS)
Wed 05:25:00 AM -3.5342 -165.7373 41° Northeast 509 586 33,000  Level FlightAware Transoceanic
Wed 05:26:00 AM -3.4214 -165.6404 41° Northeast 509 586 33,000  Level FlightAware Transoceanic
Wed 05:27:00 AM -3.3086 -165.5434 41° Northeast 509 586 33,000  Level FlightAware Transoceanic
Wed 05:28:00 AM -3.1957 -165.4465 41° Northeast 509 586 33,000  Level FlightAware Transoceanic
Wed 05:29:00 AM -3.0829 -165.3497 41° Northeast 509 586 33,000  Level FlightAware Transoceanic
Wed 05:30:00 AM -2.7231 -165.0323 41° Northeast 511 588 33,000  Level FlightAware Transoceanic
Wed 05:31:00 AM -2.6158 -164.9405 41° Northeast 511 588 33,000  Level FlightAware Transoceanic
Wed 05:32:00 AM -2.5086 -164.8487 41° Northeast 511 588 33,000  Level FlightAware Transoceanic
Wed 05:33:00 AM -2.4013 -164.7569 41° Northeast 511 588 33,000  Level FlightAware Transoceanic
Wed 05:34:00 AM -2.2940 -164.6652 41° Northeast 511 588 33,000  Level FlightAware Transoceanic
Wed 05:35:00 AM -2.1867 -164.5735 41° Northeast 511 588 33,000  Level FlightAware Transoceanic
Wed 05:36:00 AM -2.0793 -164.4818 40° Northeast 511 588 33,000  Level FlightAware Transoceanic
Wed 05:37:00 AM -1.9720 -164.3901 40° Northeast 511 588 33,000  Level FlightAware Transoceanic
Wed 05:38:00 AM -1.8647 -164.2984 40° Northeast 511 588 33,000 1,446 Level FlightAware Transoceanic
Wed 05:38:23 AM -1.8000 -164.2500 41° Northeast 514 592 35,000  Climbing Oakland Oceanic (ODAPS)
Wed 05:39:00 AM -1.7574 -164.2067 40° Northeast 511 588 33,000 -1,237 Descending FlightAware Transoceanic
Wed 05:40:00 AM -1.6500 -164.1150 40° Northeast 511 588 33,000  Level FlightAware Transoceanic
Wed 05:41:00 AM -1.5427 -164.0234 40° Northeast 511 588 33,000  Level FlightAware Transoceanic
Wed 05:42:00 AM -1.4354 -163.9317 40° Northeast 511 588 33,000  Level FlightAware Transoceanic
Wed 05:43:00 AM -1.3280 -163.8401 40° Northeast 511 588 33,000 1,000 Level FlightAware Transoceanic
Wed 05:44:00 AM -1.1486 -163.6927 41° Northeast 514 592 35,000 1,000 Climbing FlightAware Transoceanic
Wed 05:45:00 AM -1.0401 -163.5998 41° Northeast 514 592 35,000  Level FlightAware Transoceanic
Wed 05:46:00 AM -0.9315 -163.5070 41° Northeast 514 592 35,000  Level FlightAware Transoceanic
Wed 05:47:00 AM -0.8229 -163.4141 41° Northeast 514 592 35,000  Level FlightAware Transoceanic
Wed 05:48:00 AM -0.7143 -163.3213 41° Northeast 514 592 35,000  Level FlightAware Transoceanic
Wed 05:49:00 AM -0.6058 -163.2285 41° Northeast 514 592 35,000  Level FlightAware Transoceanic
Wed 05:50:00 AM -0.4972 -163.1356 41° Northeast 514 592 35,000  Level FlightAware Transoceanic
Wed 05:51:00 AM -0.3886 -163.0428 41° Northeast 514 592 35,000  Level FlightAware Transoceanic
Wed 05:52:00 AM -0.2800 -162.9500 41° Northeast 514 592 35,000  Level FlightAware Transoceanic
Wed 05:52:15 AM -0.2667 -162.9333 40° Northeast 513 590 35,000  Level Oakland Oceanic (ODAPS)
Wed 05:53:00 AM -0.1714 -162.8571 41° Northeast 514 592 35,000  Level FlightAware Transoceanic
Wed 05:54:00 AM -0.0628 -162.7643 41° Northeast 514 592 35,000  Level FlightAware Transoceanic
Wed 05:55:00 AM 0.0457 -162.6715 41° Northeast 514 592 35,000  Level FlightAware Transoceanic
Wed 05:56:00 AM 0.1543 -162.5787 41° Northeast 514 592 35,000  Level FlightAware Transoceanic
Wed 05:57:00 AM 0.2629 -162.4859 41° Northeast 514 592 35,000  Level FlightAware Transoceanic
Wed 05:58:00 AM 0.3810 -162.3811 40° Northeast 513 590 35,000  Level FlightAware Transoceanic
Wed 05:59:00 AM 0.4890 -162.2891 40° Northeast 513 590 35,000  Level FlightAware Transoceanic
Wed 06:00:00 AM 0.5969 -162.1971 40° Northeast 513 590 35,000  Level FlightAware Transoceanic
Wed 06:01:00 AM 0.7049 -162.1050 40° Northeast 513 590 35,000  Level FlightAware Transoceanic
Wed 06:02:00 AM 0.8128 -162.0130 40° Northeast 513 590 35,000  Level FlightAware Transoceanic
Wed 06:03:00 AM 0.9208 -161.9209 40° Northeast 513 590 35,000  Level FlightAware Transoceanic
Wed 06:04:00 AM 1.0287 -161.8289 40° Northeast 513 590 35,000  Level FlightAware Transoceanic
Wed 06:05:00 AM 1.1366 -161.7368 40° Northeast 513 590 35,000  Level FlightAware Transoceanic
Wed 06:06:00 AM 1.2446 -161.6447 40° Northeast 513 590 35,000  Level FlightAware Transoceanic
Wed 06:06:08 AM 1.2333 -161.6500 40° Northeast 495 570 35,000  Level Oakland Oceanic (ODAPS)
Wed 06:07:00 AM 1.3525 -161.5527 40° Northeast 513 590 35,000  Level FlightAware Transoceanic
Wed 06:08:00 AM 1.4604 -161.4606 40° Northeast 513 590 35,000  Level FlightAware Transoceanic
Wed 06:09:00 AM 1.5683 -161.3685 40° Northeast 513 590 35,000  Level FlightAware Transoceanic
Wed 06:10:00 AM 1.6763 -161.2764 40° Northeast 513 590 35,000  Level FlightAware Transoceanic
Wed 06:11:00 AM 1.7842 -161.1843 40° Northeast 513 590 35,000  Level FlightAware Transoceanic
Wed 06:12:00 AM 1.8905 -161.0929 40° Northeast 495 570 35,000  Level FlightAware Transoceanic
Wed 06:13:00 AM 2.0000 -161.0000 38° Northeast 495 570 35,000  Level FlightAware Transoceanic
Wed 06:13:24 AM 2.0000 -161.0000 38° Northeast 494 568 35,000  Level Oakland Oceanic (ODAPS)
Wed 06:14:00 AM 2.1066 -160.9154 38° Northeast 495 570 35,000  Level FlightAware Transoceanic
Wed 06:15:00 AM 2.2131 -160.8307 38° Northeast 495 570 35,000  Level FlightAware Transoceanic
Wed 06:16:00 AM 2.3197 -160.7461 38° Northeast 495 570 35,000  Level FlightAware Transoceanic
Wed 06:17:00 AM 2.4262 -160.6614 38° Northeast 495 570 35,000  Level FlightAware Transoceanic
Wed 06:18:00 AM 2.5328 -160.5767 38° Northeast 495 570 35,000  Level FlightAware Transoceanic
Wed 06:19:00 AM 2.6393 -160.4920 38° Northeast 494 568 35,000  Level FlightAware Transoceanic
Wed 06:19:59 AM 2.7167 -160.4333 38° Northeast 477 549 35,000  Level Oakland Oceanic (ODAPS)
Wed 06:20:00 AM 2.7459 -160.4073 38° Northeast 494 568 35,000  Level FlightAware Transoceanic
Wed 06:21:00 AM 2.8524 -160.3226 38° Northeast 494 568 35,000  Level FlightAware Transoceanic
Wed 06:22:00 AM 2.9589 -160.2378 38° Northeast 494 568 35,000  Level FlightAware Transoceanic
Wed 06:23:00 AM 3.0655 -160.1530 38° Northeast 494 568 35,000  Level FlightAware Transoceanic
Wed 06:24:00 AM 3.1720 -160.0683 38° Northeast 494 568 35,000  Level FlightAware Transoceanic
Wed 06:25:00 AM 3.2785 -159.9835 38° Northeast 494 568 35,000  Level FlightAware Transoceanic
Wed 06:26:00 AM 3.3445 -159.9333 39° Northeast 477 549 35,000  Level FlightAware Transoceanic
Wed 06:27:00 AM 3.4491 -159.8499 39° Northeast 477 549 35,000  Level FlightAware Transoceanic
Wed 06:28:00 AM 3.5537 -159.7665 39° Northeast 477 549 35,000  Level FlightAware Transoceanic
Wed 06:29:00 AM 3.6583 -159.6831 39° Northeast 477 549 35,000  Level FlightAware Transoceanic
Wed 06:30:00 AM 3.7629 -159.5997 39° Northeast 477 549 35,000  Level FlightAware Transoceanic
Wed 06:31:00 AM 3.8674 -159.5162 39° Northeast 477 549 35,000  Level FlightAware Transoceanic
Wed 06:32:00 AM 3.9720 -159.4327 39° Northeast 477 549 35,000  Level FlightAware Transoceanic
Wed 06:33:00 AM 4.0766 -159.3492 39° Northeast 477 549 35,000  Level FlightAware Transoceanic
Wed 06:33:51 AM 4.1667 -159.2667 38° Northeast 482 555 35,000  Level Oakland Oceanic (ODAPS)
Wed 06:34:00 AM 4.1811 -159.2657 39° Northeast 477 549 35,000  Level FlightAware Transoceanic
Wed 06:35:00 AM 4.2857 -159.1821 39° Northeast 477 549 35,000  Level FlightAware Transoceanic
Wed 06:36:00 AM 4.3902 -159.0985 39° Northeast 477 549 35,000  Level FlightAware Transoceanic
Wed 06:37:00 AM 4.4947 -159.0149 39° Northeast 477 549 35,000  Level FlightAware Transoceanic
Wed 06:38:00 AM 4.5992 -158.9313 39° Northeast 477 549 35,000  Level FlightAware Transoceanic
Wed 06:39:00 AM 4.7038 -158.8477 39° Northeast 477 549 35,000  Level FlightAware Transoceanic
Wed 06:40:00 AM 4.7970 -158.7648 38° Northeast 482 555 35,000  Level FlightAware Transoceanic
Wed 06:41:00 AM 4.9020 -158.6810 38° Northeast 482 555 35,000  Level FlightAware Transoceanic
Wed 06:42:00 AM 5.0071 -158.5973 38° Northeast 482 555 35,000  Level FlightAware Transoceanic
Wed 06:43:00 AM 5.1121 -158.5135 38° Northeast 482 555 35,000  Level FlightAware Transoceanic
Wed 06:44:00 AM 5.2170 -158.4297 38° Northeast 482 555 35,000  Level FlightAware Transoceanic
Wed 06:45:00 AM 5.3220 -158.3458 38° Northeast 482 555 35,000  Level FlightAware Transoceanic
Wed 06:46:00 AM 5.4270 -158.2619 39° Northeast 482 555 35,000  Level FlightAware Transoceanic
Wed 06:47:00 AM 5.5319 -158.1780 39° Northeast 482 555 35,000  Level FlightAware Transoceanic
Wed 06:47:43 AM 5.6167 -158.1167 39° Northeast 476 548 35,000  Level Oakland Oceanic (ODAPS)
Wed 06:48:00 AM 5.6369 -158.0941 39° Northeast 482 555 35,000  Level FlightAware Transoceanic
Wed 06:49:00 AM 5.7418 -158.0101 39° Northeast 482 555 35,000  Level FlightAware Transoceanic
Wed 06:50:00 AM 5.8467 -157.9261 39° Northeast 482 555 35,000  Level FlightAware Transoceanic
Wed 06:51:00 AM 5.9517 -157.8421 39° Northeast 482 555 35,000  Level FlightAware Transoceanic
Wed 06:52:00 AM 6.0566 -157.7581 39° Northeast 482 555 35,000  Level FlightAware Transoceanic
Wed 06:53:00 AM 6.1614 -157.6740 39° Northeast 482 555 35,000  Level FlightAware Transoceanic
Wed 06:54:00 AM 6.2554 -157.6020 39° Northeast 476 548 35,000  Level FlightAware Transoceanic
Wed 06:55:00 AM 6.3618 -157.5161 39° Northeast 476 548 35,000  Level FlightAware Transoceanic
Wed 06:56:00 AM 6.4682 -157.4302 39° Northeast 476 548 35,000  Level FlightAware Transoceanic
Wed 06:57:00 AM 6.5746 -157.3442 39° Northeast 476 548 35,000  Level FlightAware Transoceanic
Wed 06:58:00 AM 6.6810 -157.2582 39° Northeast 476 548 35,000  Level FlightAware Transoceanic
Wed 06:59:00 AM 6.7873 -157.1722 39° Northeast 476 548 35,000  Level FlightAware Transoceanic
Wed 07:00:00 AM 6.8937 -157.0861 39° Northeast 476 548 35,000  Level FlightAware Transoceanic
Wed 07:00:59 AM 7.0000 -157.0000 44° Northeast 494 568 35,000  Level Oakland Oceanic (ODAPS)
Wed 07:01:00 AM 7.0000 -157.0000 44° Northeast 476 548 35,000  Level FlightAware Transoceanic
Wed 07:01:36 AM 7.0667 -156.9333 44° Northeast 494 568 35,000  Level Oakland Oceanic (ODAPS)
Wed 07:02:00 AM 7.0987 -156.9032 44° Northeast 476 548 35,000  Level FlightAware Transoceanic
Wed 07:03:00 AM 7.1973 -156.8064 44° Northeast 476 548 35,000  Level FlightAware Transoceanic
Wed 07:04:00 AM 7.2959 -156.7096 44° Northeast 476 548 35,000  Level FlightAware Transoceanic
Wed 07:05:00 AM 7.3945 -156.6127 44° Northeast 476 548 35,000  Level FlightAware Transoceanic
Wed 07:06:00 AM 7.4931 -156.5158 44° Northeast 476 548 35,000  Level FlightAware Transoceanic
Wed 07:07:00 AM 7.6504 -156.3598 44° Northeast 494 568 35,000  Level FlightAware Transoceanic
Wed 07:08:00 AM 7.7476 -156.2641 44° Northeast 494 568 35,000  Level FlightAware Transoceanic
Wed 07:09:00 AM 7.8448 -156.1683 44° Northeast 494 568 35,000  Level FlightAware Transoceanic
Wed 07:10:00 AM 7.9420 -156.0725 44° Northeast 494 568 35,000  Level FlightAware Transoceanic
Wed 07:11:00 AM 8.0392 -155.9767 44° Northeast 494 568 35,000  Level FlightAware Transoceanic
Wed 07:12:00 AM 8.1363 -155.8808 44° Northeast 494 568 35,000  Level FlightAware Transoceanic
Wed 07:13:00 AM 8.2334 -155.7848 44° Northeast 494 568 35,000  Level FlightAware Transoceanic
Wed 07:14:00 AM 8.3305 -155.6888 44° Northeast 494 568 35,000  Level FlightAware Transoceanic
Wed 07:15:00 AM 8.4275 -155.5927 44° Northeast 494 568 35,000  Level FlightAware Transoceanic
Wed 07:15:28 AM 8.4167 -155.6000 44° Northeast 499 574 35,000  Level Oakland Oceanic (ODAPS)
Wed 07:16:00 AM 8.5246 -155.4966 44° Northeast 494 568 35,000  Level FlightAware Transoceanic
Wed 07:17:00 AM 8.6216 -155.4005 44° Northeast 494 568 35,000  Level FlightAware Transoceanic
Wed 07:18:00 AM 8.7186 -155.3043 44° Northeast 494 568 35,000  Level FlightAware Transoceanic
Wed 07:19:00 AM 8.8156 -155.2080 44° Northeast 494 568 35,000  Level FlightAware Transoceanic
Wed 07:20:00 AM 8.9125 -155.1117 44° Northeast 494 568 35,000  Level FlightAware Transoceanic
Wed 07:21:00 AM 9.0003 -155.0215 44° Northeast 499 574 35,000  Level FlightAware Transoceanic
Wed 07:22:00 AM 9.0975 -154.9249 44° Northeast 499 574 35,000  Level FlightAware Transoceanic
Wed 07:23:00 AM 9.1947 -154.8283 44° Northeast 499 574 35,000  Level FlightAware Transoceanic
Wed 07:24:00 AM 9.2918 -154.7316 45° Northeast 499 574 35,000  Level FlightAware Transoceanic
Wed 07:25:00 AM 9.3889 -154.6348 45° Northeast 499 574 35,000  Level FlightAware Transoceanic
Wed 07:26:00 AM 9.4860 -154.5380 45° Northeast 499 574 35,000  Level FlightAware Transoceanic
Wed 07:27:00 AM 9.5831 -154.4411 45° Northeast 499 574 35,000  Level FlightAware Transoceanic
Wed 07:28:00 AM 9.6801 -154.3442 45° Northeast 499 574 35,000  Level FlightAware Transoceanic
Wed 07:29:00 AM 9.7771 -154.2472 45° Northeast 499 574 35,000  Level FlightAware Transoceanic
Wed 07:29:20 AM 9.8000 -154.2167 44° Northeast 501 577 35,000  Level Oakland Oceanic (ODAPS)
Wed 07:30:00 AM 9.8741 -154.1502 45° Northeast 499 574 35,000  Level FlightAware Transoceanic
Wed 07:31:00 AM 9.9710 -154.0531 45° Northeast 499 574 35,000  Level FlightAware Transoceanic
Wed 07:32:00 AM 10.0679 -153.9560 45° Northeast 499 574 35,000  Level FlightAware Transoceanic
Wed 07:33:00 AM 10.1648 -153.8588 45° Northeast 499 574 35,000  Level FlightAware Transoceanic
Wed 07:34:00 AM 10.2617 -153.7615 45° Northeast 499 574 35,000  Level FlightAware Transoceanic
Wed 07:35:00 AM 10.4016 -153.6153 45° Northeast 501 577 35,000  Level FlightAware Transoceanic
Wed 07:36:00 AM 10.5017 -153.5149 45° Northeast 501 577 35,000  Level FlightAware Transoceanic
Wed 07:37:00 AM 10.6018 -153.4144 45° Northeast 501 577 35,000  Level FlightAware Transoceanic
Wed 07:38:00 AM 10.7019 -153.3138 45° Northeast 501 577 35,000  Level FlightAware Transoceanic
Wed 07:39:00 AM 10.8020 -153.2131 45° Northeast 501 577 35,000  Level FlightAware Transoceanic
Wed 07:39:36 AM 10.8167 -153.2000 45° Northeast 509 586 35,000  Level Oakland Oceanic (ODAPS)
Wed 07:40:00 AM 10.9020 -153.1124 45° Northeast 501 577 35,000  Level FlightAware Transoceanic
Wed 07:41:00 AM 11.0020 -153.0116 45° Northeast 501 577 35,000  Level FlightAware Transoceanic
Wed 07:42:00 AM 11.1019 -152.9108 45° Northeast 501 577 35,000  Level FlightAware Transoceanic
Wed 07:43:00 AM 11.2019 -152.8099 45° Northeast 501 577 35,000  Level FlightAware Transoceanic
Wed 07:43:12 AM 11.2000 -152.8167 45° Northeast 508 585 35,000  Level Oakland Oceanic (ODAPS)
Wed 07:44:00 AM 11.3018 -152.7089 45° Northeast 501 577 35,000  Level FlightAware Transoceanic
Wed 07:45:00 AM 11.4016 -152.6078 45° Northeast 501 577 35,000  Level FlightAware Transoceanic
Wed 07:46:00 AM 11.5075 -152.5012 45° Northeast 509 586 35,000  Level FlightAware Transoceanic
Wed 07:47:00 AM 11.6061 -152.4011 45° Northeast 509 586 35,000  Level FlightAware Transoceanic
Wed 07:48:00 AM 11.7046 -152.3009 45° Northeast 509 586 35,000  Level FlightAware Transoceanic
Wed 07:49:00 AM 11.8002 -152.2046 45° Northeast 508 585 35,000  Level FlightAware Transoceanic
Wed 07:50:00 AM 11.9001 -152.1023 45° Northeast 508 585 35,000  Level FlightAware Transoceanic
Wed 07:51:00 AM 12.0000 -152.0000 48° Northeast 508 585 35,000  Level FlightAware Transoceanic
Wed 07:51:12 AM 12.0000 -152.0000 48° Northeast 507 583 35,000  Level Oakland Oceanic (ODAPS)
Wed 07:52:00 AM 12.0953 -151.8934 48° Northeast 508 585 35,000  Level FlightAware Transoceanic
Wed 07:53:00 AM 12.1905 -151.7868 48° Northeast 508 585 35,000  Level FlightAware Transoceanic
Wed 07:54:00 AM 12.2857 -151.6801 48° Northeast 508 585 35,000  Level FlightAware Transoceanic
Wed 07:55:00 AM 12.3808 -151.5733 48° Northeast 508 585 35,000  Level FlightAware Transoceanic
Wed 07:56:00 AM 12.4760 -151.4664 48° Northeast 508 585 35,000  Level FlightAware Transoceanic
Wed 07:57:00 AM 12.5710 -151.3595 48° Northeast 507 583 35,000  Level FlightAware Transoceanic
Wed 07:57:04 AM 12.5667 -151.3667 48° Northeast 502 578 35,000  Level Oakland Oceanic (ODAPS)
Wed 07:58:00 AM 12.6660 -151.2525 48° Northeast 507 583 35,000  Level FlightAware Transoceanic
Wed 07:59:00 AM 12.7610 -151.1454 48° Northeast 507 583 35,000  Level FlightAware Transoceanic
Wed 08:00:00 AM 12.8560 -151.0382 48° Northeast 507 583 35,000  Level FlightAware Transoceanic
Wed 08:01:00 AM 12.9508 -150.9309 48° Northeast 507 583 35,000  Level FlightAware Transoceanic
Wed 08:02:00 AM 13.0457 -150.8235 48° Northeast 507 583 35,000  Level FlightAware Transoceanic
Wed 08:03:00 AM 13.1270 -150.7335 48° Northeast 502 578 35,000  Level FlightAware Transoceanic
Wed 08:04:00 AM 13.2202 -150.6277 48° Northeast 502 578 35,000  Level FlightAware Transoceanic
Wed 08:05:00 AM 13.3134 -150.5219 48° Northeast 502 578 35,000  Level FlightAware Transoceanic
Wed 08:06:00 AM 13.4066 -150.4159 48° Northeast 502 578 35,000  Level FlightAware Transoceanic
Wed 08:07:00 AM 13.4997 -150.3098 48° Northeast 502 578 35,000  Level FlightAware Transoceanic
Wed 08:08:00 AM 13.5927 -150.2037 48° Northeast 502 578 35,000  Level FlightAware Transoceanic
Wed 08:09:00 AM 13.6857 -150.0975 48° Northeast 502 578 35,000  Level FlightAware Transoceanic
Wed 08:10:00 AM 13.7787 -149.9912 48° Northeast 502 578 35,000  Level FlightAware Transoceanic
Wed 08:10:56 AM 13.8833 -149.8667 48° Northeast 504 580 35,000  Level Oakland Oceanic (ODAPS)
Wed 08:11:00 AM 13.8716 -149.8848 48° Northeast 502 578 35,000  Level FlightAware Transoceanic
Wed 08:12:00 AM 13.9645 -149.7784 48° Northeast 502 578 35,000  Level FlightAware Transoceanic
Wed 08:13:00 AM 14.0573 -149.6718 48° Northeast 502 578 35,000  Level FlightAware Transoceanic
Wed 08:14:00 AM 14.1501 -149.5652 48° Northeast 502 578 35,000  Level FlightAware Transoceanic
Wed 08:15:00 AM 14.2429 -149.4584 48° Northeast 502 578 35,000  Level FlightAware Transoceanic
Wed 08:16:00 AM 14.3356 -149.3516 48° Northeast 502 578 35,000  Level FlightAware Transoceanic
Wed 08:17:00 AM 14.4509 -149.2144 48° Northeast 504 580 35,000  Level FlightAware Transoceanic
Wed 08:18:00 AM 14.5453 -149.1054 48° Northeast 504 580 35,000  Level FlightAware Transoceanic
Wed 08:19:00 AM 14.6397 -148.9962 48° Northeast 504 580 35,000  Level FlightAware Transoceanic
Wed 08:20:00 AM 14.7340 -148.8870 48° Northeast 504 580 35,000  Level FlightAware Transoceanic
Wed 08:21:00 AM 14.8283 -148.7777 48° Northeast 504 580 35,000  Level FlightAware Transoceanic
Wed 08:22:00 AM 14.9225 -148.6683 48° Northeast 504 580 35,000  Level FlightAware Transoceanic
Wed 08:23:00 AM 15.0166 -148.5588 48° Northeast 504 580 35,000  Level FlightAware Transoceanic
Wed 08:24:00 AM 15.1108 -148.4492 48° Northeast 504 580 35,000  Level FlightAware Transoceanic
Wed 08:24:48 AM 15.2000 -148.3333 48° Northeast 512 589 35,000  Level Oakland Oceanic (ODAPS)
Wed 08:25:00 AM 15.2048 -148.3395 48° Northeast 504 580 35,000  Level FlightAware Transoceanic
Wed 08:26:00 AM 15.2988 -148.2297 48° Northeast 504 580 35,000  Level FlightAware Transoceanic
Wed 08:27:00 AM 15.3928 -148.1198 48° Northeast 504 580 35,000  Level FlightAware Transoceanic
Wed 08:28:00 AM 15.4867 -148.0098 48° Northeast 504 580 35,000  Level FlightAware Transoceanic
Wed 08:29:00 AM 15.5805 -147.8997 49° Northeast 504 580 35,000  Level FlightAware Transoceanic
Wed 08:30:00 AM 15.6743 -147.7895 49° Northeast 504 580 35,000  Level FlightAware Transoceanic
Wed 08:31:00 AM 15.7836 -147.6515 48° Northeast 512 589 35,000  Level FlightAware Transoceanic
Wed 08:32:00 AM 15.8806 -147.5375 49° Northeast 512 589 35,000  Level FlightAware Transoceanic
Wed 08:33:00 AM 15.9776 -147.4234 49° Northeast 512 589 35,000  Level FlightAware Transoceanic
Wed 08:34:00 AM 16.0746 -147.3091 49° Northeast 512 589 35,000  Level FlightAware Transoceanic
Wed 08:35:00 AM 16.1714 -147.1948 49° Northeast 512 589 35,000  Level FlightAware Transoceanic
Wed 08:36:00 AM 16.2683 -147.0803 49° Northeast 512 589 35,000  Level FlightAware Transoceanic
Wed 08:37:00 AM 16.3650 -146.9657 49° Northeast 512 589 35,000  Level FlightAware Transoceanic
Wed 08:38:00 AM 16.4617 -146.8511 49° Northeast 512 589 35,000  Level FlightAware Transoceanic
Wed 08:38:40 AM 16.5167 -146.8000 49° Northeast 506 582 35,000  Level Oakland Oceanic (ODAPS)
Wed 08:39:00 AM 16.5583 -146.7363 49° Northeast 512 589 35,000  Level FlightAware Transoceanic
Wed 08:40:00 AM 16.6549 -146.6213 49° Northeast 512 589 35,000  Level FlightAware Transoceanic
Wed 08:41:00 AM 16.7514 -146.5063 49° Northeast 512 589 35,000  Level FlightAware Transoceanic
Wed 08:42:00 AM 16.8479 -146.3912 49° Northeast 512 589 35,000  Level FlightAware Transoceanic
Wed 08:43:00 AM 16.9442 -146.2759 49° Northeast 512 589 35,000  Level FlightAware Transoceanic
Wed 08:44:00 AM 16.9819 -146.2406 49° Northeast 506 582 35,000  Level FlightAware Transoceanic
Wed 08:45:00 AM 17.0748 -146.1284 49° Northeast 506 582 35,000  Level FlightAware Transoceanic
Wed 08:46:00 AM 17.1676 -146.0161 49° Northeast 506 582 35,000  Level FlightAware Transoceanic
Wed 08:47:00 AM 17.2603 -145.9036 49° Northeast 506 582 35,000  Level FlightAware Transoceanic
Wed 08:48:00 AM 17.3530 -145.7911 49° Northeast 506 582 35,000  Level FlightAware Transoceanic
Wed 08:49:00 AM 17.4456 -145.6784 49° Northeast 506 582 35,000  Level FlightAware Transoceanic
Wed 08:50:00 AM 17.5382 -145.5656 49° Northeast 506 582 35,000  Level FlightAware Transoceanic
Wed 08:51:00 AM 17.6307 -145.4527 49° Northeast 506 582 35,000  Level FlightAware Transoceanic
Wed 08:52:00 AM 17.7231 -145.3397 49° Northeast 506 582 35,000 1,304 Level FlightAware Transoceanic
Wed 08:52:32 AM 17.7833 -145.2667 49° Northeast 516 594 37,000  Climbing Oakland Oceanic (ODAPS)
Wed 08:53:00 AM 17.8155 -145.2266 49° Northeast 506 582 35,000 -1,364 Descending FlightAware Transoceanic
Wed 08:54:00 AM 17.9078 -145.1134 49° Northeast 506 582 35,000 1,062 Level FlightAware Transoceanic
Wed 08:54:53 AM 18.0000 -145.0000 49° Northeast 509 586 37,000  Climbing Oakland Oceanic (ODAPS)
Wed 08:55:00 AM 18.0000 -145.0000 49° Northeast 506 582 35,000 -1,791 Descending FlightAware Transoceanic
Wed 08:56:00 AM 18.0945 -144.8865 49° Northeast 506 582 35,000  Level FlightAware Transoceanic
Wed 08:57:00 AM 18.1890 -144.7729 49° Northeast 506 582 35,000 1,000 Level FlightAware Transoceanic
Wed 08:58:00 AM 18.2770 -144.6669 49° Northeast 516 594 37,000 1,000 Climbing FlightAware Transoceanic
Wed 08:59:00 AM 18.3692 -144.5556 49° Northeast 516 594 37,000  Level FlightAware Transoceanic
Wed 09:00:00 AM 18.4614 -144.4442 49° Northeast 516 594 37,000  Level FlightAware Transoceanic
Wed 09:01:00 AM 18.5663 -144.3172 49° Northeast 509 586 37,000  Level FlightAware Transoceanic
Wed 09:02:00 AM 18.6604 -144.2029 49° Northeast 509 586 37,000  Level FlightAware Transoceanic
Wed 09:03:00 AM 18.7545 -144.0886 49° Northeast 509 586 37,000  Level FlightAware Transoceanic
Wed 09:04:00 AM 18.8485 -143.9741 49° Northeast 509 586 37,000  Level FlightAware Transoceanic
Wed 09:05:00 AM 18.9425 -143.8594 49° Northeast 509 586 37,000  Level FlightAware Transoceanic
Wed 09:06:00 AM 19.0363 -143.7447 49° Northeast 509 586 37,000  Level FlightAware Transoceanic
Wed 09:06:24 AM 19.0667 -143.7167 49° Northeast 500 575 37,000  Level Oakland Oceanic (ODAPS)
Wed 09:07:00 AM 19.1301 -143.6298 49° Northeast 509 586 37,000  Level FlightAware Transoceanic
Wed 09:08:00 AM 19.2238 -143.5148 49° Northeast 509 586 37,000  Level FlightAware Transoceanic
Wed 09:09:00 AM 19.3175 -143.3996 49° Northeast 509 586 37,000  Level FlightAware Transoceanic
Wed 09:10:00 AM 19.4111 -143.2844 49° Northeast 509 586 37,000  Level FlightAware Transoceanic
Wed 09:11:00 AM 19.5046 -143.1689 49° Northeast 509 586 37,000  Level FlightAware Transoceanic
Wed 09:12:00 AM 19.6058 -143.0513 49° Northeast 500 575 37,000  Level FlightAware Transoceanic
Wed 09:13:00 AM 19.6954 -142.9400 49° Northeast 500 575 37,000  Level FlightAware Transoceanic
Wed 09:14:00 AM 19.7849 -142.8286 50° Northeast 500 575 37,000  Level FlightAware Transoceanic
Wed 09:15:00 AM 19.8744 -142.7170 50° Northeast 500 575 37,000  Level FlightAware Transoceanic
Wed 09:16:00 AM 19.9638 -142.6053 50° Northeast 500 575 37,000  Level FlightAware Transoceanic
Wed 09:17:00 AM 20.0532 -142.4935 50° Northeast 500 575 37,000  Level FlightAware Transoceanic
Wed 09:18:00 AM 20.1424 -142.3815 50° Northeast 500 575 37,000  Level FlightAware Transoceanic
Wed 09:19:00 AM 20.2316 -142.2695 50° Northeast 500 575 37,000  Level FlightAware Transoceanic
Wed 09:20:00 AM 20.3207 -142.1572 50° Northeast 500 575 37,000  Level FlightAware Transoceanic
Wed 09:20:17 AM 20.3333 -142.1500 50° Northeast 507 583 37,000  Level Oakland Oceanic (ODAPS)
Wed 09:21:00 AM 20.4098 -142.0449 50° Northeast 500 575 37,000  Level FlightAware Transoceanic
Wed 09:22:00 AM 20.4988 -141.9324 50° Northeast 500 575 37,000  Level FlightAware Transoceanic
Wed 09:23:00 AM 20.5877 -141.8199 50° Northeast 500 575 37,000  Level FlightAware Transoceanic
Wed 09:24:00 AM 20.6765 -141.7071 50° Northeast 500 575 37,000  Level FlightAware Transoceanic
Wed 09:25:00 AM 20.7653 -141.5943 50° Northeast 500 575 37,000  Level FlightAware Transoceanic
Wed 09:26:00 AM 20.8626 -141.4763 50° Northeast 507 583 37,000  Level FlightAware Transoceanic
Wed 09:27:00 AM 20.9505 -141.3635 50° Northeast 507 583 37,000  Level FlightAware Transoceanic
Wed 09:28:00 AM 21.0384 -141.2506 50° Northeast 507 583 37,000  Level FlightAware Transoceanic
Wed 09:29:00 AM 21.1262 -141.1376 50° Northeast 507 583 37,000  Level FlightAware Transoceanic
Wed 09:30:00 AM 21.2139 -141.0245 50° Northeast 507 583 37,000  Level FlightAware Transoceanic
Wed 09:31:00 AM 21.3016 -140.9112 50° Northeast 507 583 37,000  Level FlightAware Transoceanic
Wed 09:32:00 AM 21.3891 -140.7978 50° Northeast 507 583 37,000  Level FlightAware Transoceanic
Wed 09:33:00 AM 21.4766 -140.6842 50° Northeast 507 583 37,000  Level FlightAware Transoceanic
Wed 09:34:00 AM 21.5641 -140.5705 50° Northeast 507 583 37,000  Level FlightAware Transoceanic
Wed 09:34:09 AM 21.5833 -140.5333 50° Northeast 517 595 37,000  Level Oakland Oceanic (ODAPS)
Wed 09:35:00 AM 21.6514 -140.4567 50° Northeast 507 583 37,000  Level FlightAware Transoceanic
Wed 09:36:00 AM 21.7387 -140.3427 51° Northeast 507 583 37,000  Level FlightAware Transoceanic
Wed 09:37:00 AM 21.8259 -140.2286 51° Northeast 507 583 37,000  Level FlightAware Transoceanic
Wed 09:38:00 AM 21.9130 -140.1144 51° Northeast 507 583 37,000  Level FlightAware Transoceanic
Wed 09:38:42 AM 22.0000 -140.0000 50° Northeast 508 585 37,000  Level Oakland Oceanic (ODAPS)
Wed 09:39:00 AM 22.0000 -140.0000 50° Northeast 507 583 37,000  Level FlightAware Transoceanic
Wed 09:40:00 AM 22.1792 -139.7696 50° Northeast 517 595 37,000  Level FlightAware Transoceanic
Wed 09:41:00 AM 22.2687 -139.6542 50° Northeast 517 595 37,000  Level FlightAware Transoceanic
Wed 09:42:00 AM 22.3581 -139.5387 50° Northeast 517 595 37,000  Level FlightAware Transoceanic
Wed 09:43:00 AM 22.4474 -139.4230 50° Northeast 517 595 37,000  Level FlightAware Transoceanic
Wed 09:44:00 AM 22.5367 -139.3071 50° Northeast 517 595 37,000  Level FlightAware Transoceanic
Wed 09:45:00 AM 22.5529 -139.2861 50° Northeast 508 585 37,000  Level FlightAware Transoceanic
Wed 09:46:00 AM 22.6448 -139.1665 50° Northeast 508 585 37,000  Level FlightAware Transoceanic
Wed 09:47:00 AM 22.7365 -139.0468 50° Northeast 508 585 37,000  Level FlightAware Transoceanic
Wed 09:48:00 AM 22.8282 -138.9270 50° Northeast 508 585 37,000  Level FlightAware Transoceanic
Wed 09:48:01 AM 22.8500 -138.9000 50° Northeast 503 579 37,000  Level Oakland Oceanic (ODAPS)
Wed 09:49:00 AM 22.9197 -138.8069 50° Northeast 508 585 37,000  Level FlightAware Transoceanic
Wed 09:50:00 AM 23.0112 -138.6867 50° Northeast 508 585 37,000  Level FlightAware Transoceanic
Wed 09:51:00 AM 23.1026 -138.5664 50° Northeast 508 585 37,000  Level FlightAware Transoceanic
Wed 09:52:00 AM 23.1939 -138.4459 51° Northeast 508 585 37,000  Level FlightAware Transoceanic
Wed 09:53:00 AM 23.2851 -138.3252 51° Northeast 508 585 37,000  Level FlightAware Transoceanic
Wed 09:54:00 AM 23.3925 -138.1840 51° Northeast 503 579 37,000  Level FlightAware Transoceanic
Wed 09:55:00 AM 23.4827 -138.0641 51° Northeast 503 579 37,000  Level FlightAware Transoceanic
Wed 09:56:00 AM 23.5727 -137.9440 51° Northeast 503 579 37,000  Level FlightAware Transoceanic
Wed 09:57:00 AM 23.6626 -137.8238 51° Northeast 503 579 37,000  Level FlightAware Transoceanic
Wed 09:58:00 AM 23.7524 -137.7034 51° Northeast 503 579 37,000  Level FlightAware Transoceanic
Wed 09:59:00 AM 23.8422 -137.5828 51° Northeast 503 579 37,000  Level FlightAware Transoceanic
Wed 10:00:00 AM 23.9318 -137.4621 51° Northeast 503 579 37,000  Level FlightAware Transoceanic
Wed 10:01:00 AM 24.0214 -137.3412 51° Northeast 503 579 37,000  Level FlightAware Transoceanic
Wed 10:01:53 AM 24.0833 -137.2667 51° Northeast 512 589 37,000  Level Oakland Oceanic (ODAPS)
Wed 10:02:00 AM 24.1108 -137.2201 51° Northeast 503 579 37,000  Level FlightAware Transoceanic
Wed 10:03:00 AM 24.2002 -137.0989 51° Northeast 503 579 37,000  Level FlightAware Transoceanic
Wed 10:04:00 AM 24.2894 -136.9775 51° Northeast 503 579 37,000  Level FlightAware Transoceanic
Wed 10:05:00 AM 24.3786 -136.8559 51° Northeast 503 579 37,000  Level FlightAware Transoceanic
Wed 10:06:00 AM 24.4677 -136.7341 51° Northeast 503 579 37,000  Level FlightAware Transoceanic
Wed 10:07:00 AM 24.5566 -136.6122 51° Northeast 503 579 37,000  Level FlightAware Transoceanic
Wed 10:08:00 AM 24.6346 -136.5089 52° Northeast 512 589 37,000  Level FlightAware Transoceanic
Wed 10:09:00 AM 24.7261 -136.3819 52° Northeast 512 589 37,000  Level FlightAware Transoceanic
Wed 10:10:00 AM 24.8175 -136.2548 52° Northeast 512 589 37,000  Level FlightAware Transoceanic
Wed 10:11:00 AM 24.9088 -136.1275 52° Northeast 512 589 37,000  Level FlightAware Transoceanic
Wed 10:12:00 AM 25.0000 -136.0000 59° Northeast 512 589 37,000  Level FlightAware Transoceanic
Wed 10:12:18 AM 25.0000 -136.0000 59° Northeast 516 594 37,000  Level Oakland Oceanic (ODAPS)
Wed 10:13:00 AM 25.0727 -135.8668 59° Northeast 512 589 37,000  Level FlightAware Transoceanic
Wed 10:14:00 AM 25.1452 -135.7334 59° Northeast 512 589 37,000  Level FlightAware Transoceanic
Wed 10:15:00 AM 25.2176 -135.5999 59° Northeast 512 589 37,000  Level FlightAware Transoceanic
Wed 10:15:45 AM 25.2500 -135.5333 59° Northeast 515 593 37,000  Level Oakland Oceanic (ODAPS)
Wed 10:16:00 AM 25.2899 -135.4662 59° Northeast 512 589 37,000  Level FlightAware Transoceanic
Wed 10:17:00 AM 25.3620 -135.3324 59° Northeast 512 589 37,000  Level FlightAware Transoceanic
Wed 10:18:00 AM 25.4417 -135.1843 59° Northeast 516 594 37,000  Level FlightAware Transoceanic
Wed 10:18:00 AM 25.4000 -135.2500 59° Northeast 490 564 37,000  Level Oakland Oceanic (ODAPS)
Wed 10:19:00 AM 25.5149 -135.0477 59° Northeast 516 594 37,000  Level FlightAware Transoceanic
Wed 10:20:00 AM 25.5879 -134.9110 59° Northeast 516 594 37,000  Level FlightAware Transoceanic
Wed 10:21:00 AM 25.6608 -134.7742 59° Northeast 516 594 37,000  Level FlightAware Transoceanic
Wed 10:22:00 AM 25.6941 -134.7055 59° Northeast 515 593 37,000  Level FlightAware Transoceanic
Wed 10:23:00 AM 25.7677 -134.5669 60° Northeast 515 593 37,000  Level FlightAware Transoceanic
Wed 10:24:00 AM 25.8179 -134.4673 60° Northeast 490 564 37,000  Level FlightAware Transoceanic
Wed 10:25:00 AM 25.8872 -134.3362 60° Northeast 490 564 37,000  Level FlightAware Transoceanic
Wed 10:26:00 AM 25.9563 -134.2051 60° Northeast 490 564 37,000  Level FlightAware Transoceanic
Wed 10:27:00 AM 26.0253 -134.0738 60° Northeast 490 564 37,000  Level FlightAware Transoceanic
Wed 10:28:00 AM 26.0942 -133.9424 60° Northeast 490 564 37,000  Level FlightAware Transoceanic
Wed 10:29:00 AM 26.1630 -133.8107 60° Northeast 490 564 37,000  Level FlightAware Transoceanic
Wed 10:29:36 AM 26.2500 -133.6500 60° Northeast 500 575 37,000  Level Oakland Oceanic (ODAPS)
Wed 10:30:00 AM 26.2316 -133.6790 60° Northeast 490 564 37,000  Level FlightAware Transoceanic
Wed 10:31:00 AM 26.3001 -133.5470 60° Northeast 490 564 37,000  Level FlightAware Transoceanic
Wed 10:32:00 AM 26.3685 -133.4150 60° Northeast 490 564 37,000  Level FlightAware Transoceanic
Wed 10:33:00 AM 26.4368 -133.2827 60° Northeast 490 564 37,000  Level FlightAware Transoceanic
Wed 10:34:00 AM 26.5050 -133.1504 60° Northeast 490 564 37,000  Level FlightAware Transoceanic
Wed 10:35:00 AM 26.6566 -132.8601 60° Northeast 500 575 37,000  Level FlightAware Transoceanic
Wed 10:36:00 AM 26.7239 -132.7279 60° Northeast 500 575 37,000  Level FlightAware Transoceanic
Wed 10:37:00 AM 26.7912 -132.5955 60° Northeast 500 575 37,000  Level FlightAware Transoceanic
Wed 10:38:00 AM 26.8583 -132.4630 60° Northeast 500 575 37,000  Level FlightAware Transoceanic
Wed 10:39:00 AM 26.9252 -132.3303 61° Northeast 500 575 37,000  Level FlightAware Transoceanic
Wed 10:40:00 AM 26.9921 -132.1975 61° Northeast 500 575 37,000  Level FlightAware Transoceanic
Wed 10:41:00 AM 27.0588 -132.0645 61° Northeast 500 575 37,000  Level FlightAware Transoceanic
Wed 10:42:00 AM 27.1254 -131.9314 61° Northeast 500 575 37,000  Level FlightAware Transoceanic
Wed 10:43:00 AM 27.1919 -131.7981 61° Northeast 500 575 37,000  Level FlightAware Transoceanic
Wed 10:43:29 AM 27.2333 -131.7167 61° Northeast 502 578 37,000  Level Oakland Oceanic (ODAPS)
Wed 10:44:00 AM 27.2582 -131.6646 61° Northeast 500 575 37,000  Level FlightAware Transoceanic
Wed 10:45:00 AM 27.3244 -131.5310 61° Northeast 500 575 37,000  Level FlightAware Transoceanic
Wed 10:46:00 AM 27.3905 -131.3972 61° Northeast 500 575 37,000  Level FlightAware Transoceanic
Wed 10:47:00 AM 27.4565 -131.2633 61° Northeast 500 575 37,000  Level FlightAware Transoceanic
Wed 10:48:00 AM 27.5223 -131.1292 61° Northeast 500 575 37,000  Level FlightAware Transoceanic
Wed 10:49:00 AM 27.6345 -130.9013 61° Northeast 502 578 37,000  Level FlightAware Transoceanic
Wed 10:50:00 AM 27.7009 -130.7648 61° Northeast 502 578 37,000  Level FlightAware Transoceanic
Wed 10:51:00 AM 27.7672 -130.6282 61° Northeast 502 578 37,000  Level FlightAware Transoceanic
Wed 10:52:00 AM 27.8333 -130.4913 61° Northeast 502 578 37,000  Level FlightAware Transoceanic
Wed 10:53:00 AM 27.8993 -130.3544 61° Northeast 502 578 37,000  Level FlightAware Transoceanic
Wed 10:54:00 AM 27.9652 -130.2172 62° Northeast 502 578 37,000  Level FlightAware Transoceanic
Wed 10:55:00 AM 28.0309 -130.0799 62° Northeast 502 578 37,000  Level FlightAware Transoceanic
Wed 10:56:00 AM 28.0965 -129.9424 62° Northeast 502 578 37,000  Level FlightAware Transoceanic
Wed 10:57:00 AM 28.1619 -129.8048 62° Northeast 502 578 37,000  Level FlightAware Transoceanic
Wed 10:57:21 AM 28.1833 -129.7667 62° Northeast 519 597 37,000  Level Oakland Oceanic (ODAPS)
Wed 10:58:00 AM 28.2272 -129.6670 62° Northeast 502 578 37,000  Level FlightAware Transoceanic
Wed 10:59:00 AM 28.2924 -129.5290 62° Northeast 502 578 37,000  Level FlightAware Transoceanic
Wed 11:00:00 AM 28.3574 -129.3909 62° Northeast 502 578 37,000  Level FlightAware Transoceanic
Wed 11:01:00 AM 28.4223 -129.2525 62° Northeast 502 578 37,000  Level FlightAware Transoceanic
Wed 11:02:00 AM 28.4871 -129.1140 62° Northeast 502 578 37,000  Level FlightAware Transoceanic
Wed 11:03:00 AM 28.5945 -128.8868 62° Northeast 519 597 37,000  Level FlightAware Transoceanic
Wed 11:04:00 AM 28.6625 -128.7395 62° Northeast 519 597 37,000  Level FlightAware Transoceanic
Wed 11:05:00 AM 28.7303 -128.5919 62° Northeast 519 597 37,000  Level FlightAware Transoceanic
Wed 11:06:00 AM 28.7980 -128.4442 62° Northeast 519 597 37,000  Level FlightAware Transoceanic
Wed 11:07:00 AM 28.8655 -128.2964 63° Northeast 519 597 37,000  Level FlightAware Transoceanic
Wed 11:08:00 AM 28.9328 -128.1483 63° Northeast 519 597 37,000  Level FlightAware Transoceanic
Wed 11:09:00 AM 29.0000 -128.0000 60° Northeast 519 597 37,000  Level FlightAware Transoceanic
Wed 11:09:25 AM 29.0000 -128.0000 60° Northeast 513 590 37,000  Level Oakland Oceanic (ODAPS)
Wed 11:10:00 AM 29.0711 -127.8594 60° Northeast 519 597 37,000  Level FlightAware Transoceanic
Wed 11:11:00 AM 29.1421 -127.7186 60° Northeast 519 597 37,000  Level FlightAware Transoceanic
Wed 11:11:14 AM 29.1333 -127.7333 60° Northeast 514 592 37,000  Level Oakland Oceanic (ODAPS)
Wed 11:12:00 AM 29.2129 -127.5777 60° Northeast 519 597 37,000  Level FlightAware Transoceanic
Wed 11:13:00 AM 29.2836 -127.4365 60° Northeast 519 597 37,000  Level FlightAware Transoceanic
Wed 11:14:00 AM 29.3541 -127.2952 60° Northeast 519 597 37,000  Level FlightAware Transoceanic
Wed 11:15:00 AM 29.4244 -127.1536 60° Northeast 513 590 37,000  Level FlightAware Transoceanic
Wed 11:16:00 AM 29.4947 -127.0118 60° Northeast 513 590 37,000  Level FlightAware Transoceanic
Wed 11:17:00 AM 29.5579 -126.8817 60° Northeast 514 592 37,000  Level FlightAware Transoceanic
Wed 11:18:00 AM 29.6281 -126.7390 61° Northeast 514 592 37,000  Level FlightAware Transoceanic
Wed 11:19:00 AM 29.6982 -126.5962 61° Northeast 514 592 37,000  Level FlightAware Transoceanic
Wed 11:20:00 AM 29.7681 -126.4531 61° Northeast 514 592 37,000  Level FlightAware Transoceanic
Wed 11:21:00 AM 29.8379 -126.3099 61° Northeast 514 592 37,000  Level FlightAware Transoceanic
Wed 11:22:00 AM 29.9075 -126.1665 61° Northeast 514 592 37,000  Level FlightAware Transoceanic
Wed 11:23:00 AM 29.9769 -126.0228 61° Northeast 514 592 37,000  Level FlightAware Transoceanic
Wed 11:24:00 AM 30.0462 -125.8790 61° Northeast 514 592 37,000  Level FlightAware Transoceanic
Wed 11:25:00 AM 30.1154 -125.7350 61° Northeast 514 592 37,000  Level FlightAware Transoceanic
Wed 11:25:05 AM 30.1333 -125.6833 61° Northeast 525 604 37,000  Level Oakland Oceanic (ODAPS)
Wed 11:26:00 AM 30.1844 -125.5907 61° Northeast 514 592 37,000  Level FlightAware Transoceanic
Wed 11:27:00 AM 30.2532 -125.4463 61° Northeast 514 592 37,000  Level FlightAware Transoceanic
Wed 11:28:00 AM 30.3219 -125.3016 61° Northeast 514 592 37,000  Level FlightAware Transoceanic
Wed 11:29:00 AM 30.3904 -125.1568 61° Northeast 514 592 37,000  Level FlightAware Transoceanic
Wed 11:30:00 AM 30.4588 -125.0117 61° Northeast 514 592 37,000  Level FlightAware Transoceanic
Wed 11:31:00 AM 30.5662 -124.7744 61° Northeast 525 604 37,000  Level FlightAware Transoceanic
Wed 11:32:00 AM 30.6377 -124.6222 61° Northeast 525 604 37,000  Level FlightAware Transoceanic
Wed 11:33:00 AM 30.7090 -124.4697 61° Northeast 525 604 37,000  Level FlightAware Transoceanic
Wed 11:34:00 AM 30.7802 -124.3170 62° Northeast 525 604 37,000  Level FlightAware Transoceanic
Wed 11:35:00 AM 30.8512 -124.1640 62° Northeast 525 604 37,000  Level FlightAware Transoceanic
Wed 11:36:00 AM 30.9220 -124.0109 62° Northeast 525 604 37,000  Level FlightAware Transoceanic
Wed 11:37:00 AM 30.9926 -123.8575 62° Northeast 525 604 37,000  Level FlightAware Transoceanic
Wed 11:38:00 AM 31.0631 -123.7038 62° Northeast 525 604 37,000  Level FlightAware Transoceanic
Wed 11:39:00 AM 31.1333 -123.5500 77° East 525 604 37,000  Level FlightAware Transoceanic
Wed 11:39:58 AM 31.1589 -123.3939 77° East 426 490 37,000  Level Los Angeles Center
Wed 11:40:00 AM 31.1667 -123.3853 77° East 525 604 37,000  Level FlightAware Transoceanic
Wed 11:41:00 AM 31.1998 -123.2205 77° East 525 604 37,000  Level FlightAware Transoceanic
Wed 11:41:01 AM 31.1908 -123.2161 78° East 542 624 37,000  Level Los Angeles Center
Wed 11:42:00 AM 31.2327 -123.0555 77° East 525 604 37,000  Level FlightAware Transoceanic
Wed 11:42:03 AM 31.2450 -123.0503 69° East 549 632 37,000  Level Los Angeles Center
Wed 11:43:00 AM 31.2654 -122.8905 77° East 525 604 37,000  Level FlightAware Transoceanic
Wed 11:44:00 AM 31.2978 -122.7253 77° East 525 604 37,000  Level FlightAware Transoceanic
Wed 11:45:00 AM 31.3301 -122.5601 77° East 525 604 37,000  Level FlightAware Transoceanic
Wed 11:47:51 AM 31.6770 -122.1870 69° East 519 597 37,000  Level FlightAware ADS-B
Wed 11:48:47 AM 31.7340 -122.0680 61° Northeast 518 596 37,000  Level FlightAware ADS-B
Wed 11:50:00 AM 31.8190 -121.8850 61° Northeast 517 595 37,000  Level FlightAware ADS-B
Wed 11:50:49 AM 31.8480 -121.8250 60° Northeast 517 595 37,000  Level FlightAware ADS-B
Wed 11:51:35 AM 31.9370 -121.6360 61° Northeast 516 594 37,000  Level FlightAware ADS-B
Wed 11:52:07 AM 31.9730 -121.5570 62° Northeast 516 594 37,000  Level FlightAware ADS-B
Wed 11:53:07 AM 32.0380 -121.4210 61° Northeast 515 593 37,000  Level FlightAware ADS-B
Wed 11:53:41 AM 32.0710 -121.3500 61° Northeast 515 593 37,000  Level FlightAware ADS-B
Wed 11:54:32 AM 32.1210 -121.2440 61° Northeast 515 593 37,000  Level FlightAware ADS-B
Wed 11:55:23 AM 32.1920 -121.0870 62° Northeast 511 588 37,000  Level FlightAware ADS-B
Wed 11:56:02 AM 32.2300 -121.0060 61° Northeast 511 588 37,000  Level FlightAware ADS-B
Wed 11:56:43 AM 32.2850 -120.8840 62° Northeast 506 582 37,000  Level FlightAware ADS-B
Wed 11:57:41 AM 32.3490 -120.7410 62° Northeast 504 580 37,000  Level FlightAware ADS-B
Wed 11:58:20 AM 32.3880 -120.6600 60° Northeast 503 579 37,000  Level FlightAware ADS-B
Wed 11:58:59 AM 32.4360 -120.5520 62° Northeast 501 577 37,000  Level FlightAware ADS-B
Wed 11:59:45 AM 32.4870 -120.4390 62° Northeast 501 577 37,000  Level FlightAware ADS-B
Wed 12:00:27 PM 32.5320 -120.3400 62° Northeast 500 575 37,000  Level FlightAware ADS-B
Wed 12:01:06 PM 32.5740 -120.2480 62° Northeast 501 577 37,000  Level FlightAware ADS-B
Wed 12:01:51 PM 32.6250 -120.1330 62° Northeast 502 578 37,000  Level FlightAware ADS-B
Wed 12:02:35 PM 32.6720 -120.0280 62° Northeast 504 580 37,000  Level FlightAware ADS-B
Wed 12:03:15 PM 32.7160 -119.9280 62° Northeast 504 580 37,000  Level FlightAware ADS-B
Wed 12:03:57 PM 32.7630 -119.8250 61° Northeast 505 581 37,000  Level FlightAware ADS-B
Wed 12:04:35 PM 32.8030 -119.7340 62° Northeast 505 581 37,000  Level FlightAware ADS-B
Wed 12:05:19 PM 32.8510 -119.6260 62° Northeast 506 582 37,000  Level FlightAware ADS-B
Wed 12:06:02 PM 32.8820 -119.5540 63° Northeast 507 583 37,000  Level FlightAware ADS-B
Wed 12:06:45 PM 32.9450 -119.4130 62° Northeast 508 585 37,000  Level FlightAware ADS-B
Wed 12:07:27 PM 32.9910 -119.3090 62° Northeast 508 585 37,000  Level FlightAware ADS-B
Wed 12:07:59 PM 33.0270 -119.2270 62° Northeast 508 585 37,000  Level FlightAware ADS-B
Wed 12:08:47 PM 33.0780 -119.1080 63° Northeast 508 585 37,000  Level FlightAware ADS-B
Wed 12:09:27 PM 33.1210 -119.0110 62° Northeast 509 586 37,000  Level FlightAware ADS-B
Wed 12:10:02 PM 33.1590 -118.9230 63° Northeast 509 586 37,000  Level FlightAware ADS-B
Wed 12:10:50 PM 33.2120 -118.8010 63° Northeast 510 587 37,000  Level FlightAware ADS-B
Wed 12:11:59 PM 33.2830 -118.6360 63° Northeast 511 588 37,000  Level FlightAware ADS-B
Wed 12:12:45 PM 33.3350 -118.5150 63° Northeast 510 587 37,000  Level FlightAware ADS-B
Wed 12:13:24 PM 33.3670 -118.4120 70° East 513 590 37,000  Level FlightAware ADS-B
Wed 12:14:07 PM 33.3670 -118.2940 90° East 513 590 37,000  Level FlightAware ADS-B
Wed 12:14:47 PM 33.3630 -118.1770 92° East 514 592 37,000  Level FlightAware ADS-B
Wed 12:15:29 PM 33.3580 -118.0580 93° East 513 590 37,000  Level FlightAware ADS-B
Wed 12:16:42 PM 33.3520 -117.9560 94° East 514 592 37,000  Level FlightAware ADS-B
Wed 12:17:30 PM 33.3380 -117.7120 94° East 514 592 37,000  Level FlightAware ADS-B
Wed 12:18:06 PM 33.3330 -117.6130 93° East 514 592 37,000  Level FlightAware ADS-B
Wed 12:18:54 PM 33.3250 -117.4750 94° East 514 592 37,000  Level FlightAware ADS-B
Wed 12:19:36 PM 33.3180 -117.3560 94° East 514 592 37,000  Level FlightAware ADS-B
Wed 12:20:12 PM 33.3120 -117.2540 94° East 513 590 37,000  Level FlightAware ADS-B
Wed 12:20:59 PM 33.3040 -117.1270 94° East 513 590 37,000  Level FlightAware ADS-B
Wed 12:21:40 PM 33.2970 -117.0080 94° East 513 590 37,000  Level FlightAware ADS-B
Wed 12:22:22 PM 33.2900 -116.8860 94° East 513 590 37,000  Level FlightAware ADS-B
Wed 12:23:06 PM 33.2820 -116.7620 94° East 515 593 37,000  Level FlightAware ADS-B
Wed 12:23:46 PM 33.2750 -116.6510 94° East 517 595 37,000  Level FlightAware ADS-B
Wed 12:24:30 PM 33.2670 -116.5230 94° East 520 598 37,000  Level FlightAware ADS-B
Wed 12:25:10 PM 33.2590 -116.4080 95° East 519 597 37,000  Level FlightAware ADS-B
Wed 12:25:42 PM 33.2550 -116.3430 94° East 518 596 37,000  Level FlightAware ADS-B
Wed 12:26:30 PM 33.2440 -116.1860 95° East 516 594 37,000  Level FlightAware ADS-B
Wed 12:27:10 PM 33.2360 -116.0700 95° East 515 593 37,000  Level FlightAware ADS-B
Wed 12:27:50 PM 33.2290 -115.9560 94° East 514 592 37,000  Level FlightAware ADS-B
Wed 12:28:56 PM 33.2200 -115.8320 95° East 514 592 37,000  Level FlightAware ADS-B
Wed 12:29:45 PM 33.2060 -115.6370 95° East 513 590 37,000  Level FlightAware ADS-B
Wed 12:30:20 PM 33.1990 -115.5440 95° East 513 590 37,000  Level FlightAware ADS-B
Wed 12:31:09 PM 33.1940 -115.4370 93° East 513 590 37,000  Level FlightAware ADS-B
Wed 12:31:33 PM 33.1920 -115.3790 92° East 513 590 37,000  Level FlightAware ADS-B
Wed 12:32:19 PM 33.1870 -115.2690 93° East 513 590 37,000  Level FlightAware ADS-B
Wed 12:32:55 PM 33.1830 -115.1820 93° East 513 590 37,000  Level FlightAware ADS-B
Wed 12:33:41 PM 33.1780 -115.0710 93° East 513 590 37,000  Level FlightAware ADS-B
Wed 12:34:18 PM 33.1740 -114.9820 93° East 513 590 37,000  Level FlightAware ADS-B
Wed 12:34:58 PM 33.1700 -114.8860 93° East 513 590 37,000  Level FlightAware ADS-B
Wed 12:35:57 PM 33.1640 -114.7440 93° East 513 590 37,000  Level FlightAware ADS-B
Wed 12:36:33 PM 33.1600 -114.6570 93° East 513 590 37,000  Level FlightAware ADS-B
Wed 12:36:57 PM 33.1580 -114.5990 92° East 513 590 37,000  Level FlightAware ADS-B
Wed 12:37:38 PM 33.1530 -114.5010 93° East 513 590 37,000  Level FlightAware ADS-B
Wed 12:38:26 PM 33.1300 -114.1540 94° East 525 604 37,000 357 Level FlightAware ADS-B
Wed 12:39:02 PM 33.1190 -114.0500 97° East 529 609 37,500 640 Climbing FlightAware ADS-B
Wed 12:39:41 PM 33.1080 -113.9460 97° East 529 609 37,800 237 Climbing FlightAware ADS-B
Wed 12:40:18 PM 33.0980 -113.8550 97° East 529 609 37,800 900 Level FlightAware ADS-B
Wed 12:41:01 PM 33.0810 -113.7200 99° East 539 620 39,000 837 Climbing FlightAware ADS-B
Wed 12:41:44 PM 33.0710 -113.6260 97° East 539 620 39,000  Level FlightAware ADS-B
Wed 12:42:25 PM 33.0500 -113.4530 98° East 538 619 39,000  Level FlightAware ADS-B
Wed 12:43:06 PM 33.0360 -113.3350 98° East 538 619 39,000  Level FlightAware ADS-B
Wed 12:43:48 PM 33.0220 -113.2120 98° East 537 618 39,000  Level FlightAware ADS-B
Wed 12:44:33 PM 33.0050 -113.0810 99° East 534 615 39,000  Level FlightAware ADS-B
Wed 12:45:12 PM 32.9910 -112.9640 98° East 533 613 39,000  Level FlightAware ADS-B
Wed 12:46:07 PM 32.9740 -112.8280 98° East 533 613 39,000  Level FlightAware ADS-B
Wed 12:46:52 PM 32.9530 -112.6750 99° East 532 612 39,000  Level FlightAware ADS-B
Wed 12:47:28 PM 32.9400 -112.5710 98° East 531 611 39,000  Level FlightAware ADS-B
Wed 12:48:16 PM 32.9220 -112.4320 99° East 531 611 39,000  Level FlightAware ADS-B
Wed 12:49:00 PM 32.9050 -112.3060 99° East 530 610 39,000  Level FlightAware ADS-B
Wed 12:49:41 PM 32.8910 -112.1990 99° East 529 609 39,000  Level FlightAware ADS-B
Wed 12:50:22 PM 32.8740 -112.0700 99° East 529 609 39,000  Level FlightAware ADS-B
Wed 12:51:14 PM 32.8630 -111.9950 100° East 529 609 39,000  Level FlightAware ADS-B
Wed 12:52:10 PM 32.8320 -111.7660 99° East 529 609 39,000  Level FlightAware ADS-B
Wed 12:52:48 PM 32.8170 -111.6540 99° East 529 609 39,000  Level FlightAware ADS-B
Wed 12:53:34 PM 32.7990 -111.5250 99° East 529 609 39,000  Level FlightAware ADS-B
Wed 12:54:16 PM 32.7810 -111.3980 100° East 528 608 39,000  Level FlightAware ADS-B
Wed 12:54:52 PM 32.7760 -111.3580 98° East 528 608 39,000  Level FlightAware ADS-B
Wed 12:55:36 PM 32.7490 -111.1700 100° East 528 608 39,000  Level FlightAware ADS-B
Wed 12:56:16 PM 32.7330 -111.0560 99° East 528 608 39,000  Level FlightAware ADS-B
Wed 12:57:06 PM 32.7120 -110.9130 100° East 527 606 39,000  Level FlightAware ADS-B
Wed 12:57:38 PM 32.6990 -110.8220 100° East 527 606 39,000  Level FlightAware ADS-B
Wed 12:58:18 PM 32.6830 -110.7080 99° East 526 605 39,000  Level FlightAware ADS-B
Wed 12:59:04 PM 32.6630 -110.5770 100° East 525 604 39,000  Level FlightAware ADS-B
Wed 12:59:46 PM 32.6460 -110.4610 100° East 524 603 39,000  Level FlightAware ADS-B
Wed 01:00:08 PM 32.6370 -110.3960 99° East 524 603 39,000  Level FlightAware ADS-B
Wed 01:01:08 PM 32.6120 -110.2260 100° East 523 602 39,000  Level FlightAware ADS-B
Wed 01:01:48 PM 32.5940 -110.1140 101° East 522 601 39,000  Level FlightAware ADS-B
Wed 01:02:32 PM 32.5760 -109.9900 100° East 522 601 39,000  Level FlightAware ADS-B
Wed 01:03:14 PM 32.5580 -109.8710 100° East 523 602 39,000  Level FlightAware ADS-B
Wed 01:03:50 PM 32.5420 -109.7700 101° East 522 601 39,000  Level FlightAware ADS-B
Wed 01:04:37 PM 32.5220 -109.6410 100° East 523 602 39,000  Level FlightAware ADS-B
Wed 01:05:16 PM 32.5050 -109.5280 100° East 523 602 39,000  Level FlightAware ADS-B
Wed 01:06:00 PM 32.4850 -109.4040 101° East 523 602 39,000  Level FlightAware ADS-B
Wed 01:06:42 PM 32.4670 -109.2860 100° East 522 601 39,000  Level FlightAware ADS-B
Wed 01:07:26 PM 32.4470 -109.1620 101° East 524 603 39,000  Level FlightAware ADS-B
Wed 01:08:08 PM 32.4280 -109.0410 101° East 522 601 39,000  Level FlightAware ADS-B
Wed 01:08:50 PM 32.4090 -108.9270 101° East 519 597 39,000  Level FlightAware ADS-B
Wed 01:09:30 PM 32.3910 -108.8150 101° East 517 595 39,000  Level FlightAware ADS-B
Wed 01:10:04 PM 32.3760 -108.7210 101° East 517 595 39,000  Level FlightAware ADS-B
Wed 01:10:56 PM 32.3570 -108.6080 101° East 515 593 39,000  Level FlightAware ADS-B
Wed 01:11:50 PM 32.3440 -108.5280 101° East 515 593 39,000  Level FlightAware ADS-B
Wed 01:12:29 PM 32.3290 -108.4360 101° East 515 593 39,000  Level FlightAware ADS-B
Wed 01:13:20 PM 32.3100 -108.3160 101° East 515 593 39,000  Level FlightAware ADS-B
Wed 01:13:59 PM 32.2950 -108.2240 101° East 515 593 39,000  Level FlightAware ADS-B
Wed 01:15:03 PM 32.2410 -107.9080 101° East 518 596 39,000  Level FlightAware ADS-B
Wed 01:16:05 PM 32.2170 -107.7640 101° East 521 600 39,000  Level FlightAware ADS-B
Wed 01:16:53 PM 32.1980 -107.6500 101° East 521 600 39,000  Level FlightAware ADS-B
Wed 01:17:38 PM 32.1800 -107.5430 101° East 521 600 39,000  Level FlightAware ADS-B
Wed 01:18:17 PM 32.1650 -107.4500 101° East 521 600 39,000  Level FlightAware ADS-B
Wed 01:18:53 PM 32.1510 -107.3650 101° East 521 600 39,000  Level FlightAware ADS-B
Wed 01:19:42 PM 32.1320 -107.2480 101° East 521 600 39,000  Level FlightAware ADS-B
Wed 01:20:24 PM 32.1200 -106.9980 93° East 525 604 39,000  Level FlightAware ADS-B
Wed 01:20:59 PM 32.1150 -106.8960 93° East 526 605 39,000  Level FlightAware ADS-B
Wed 01:21:44 PM 32.1080 -106.7620 93° East 524 603 39,000  Level FlightAware ADS-B
Wed 01:22:29 PM 32.1010 -106.6370 94° East 522 601 39,000  Level FlightAware ADS-B
Wed 01:23:24 PM 32.0930 -106.4790 93° East 521 600 39,000  Level FlightAware ADS-B
Wed 01:24:04 PM 32.0870 -106.3660 94° East 520 598 39,000  Level FlightAware ADS-B
Wed 01:24:49 PM 32.0800 -106.2420 94° East 519 597 39,000  Level FlightAware ADS-B
Wed 01:25:29 PM 32.0730 -106.1290 94° East 519 597 39,000  Level FlightAware ADS-B
Wed 01:26:44 PM 32.0690 -105.9320 91° East 519 597 39,000  Level FlightAware ADS-B
Wed 01:27:22 PM 32.0690 -105.8400 90° East 519 597 39,000  Level FlightAware ADS-B
Wed 01:27:58 PM 32.0690 -105.7530 90° East 519 597 39,000  Level FlightAware ADS-B
Wed 01:28:46 PM 32.0690 -105.6380 90° East 519 597 39,000  Level FlightAware ADS-B
Wed 01:29:23 PM 32.0690 -105.5490 90° East 519 597 39,000  Level FlightAware ADS-B
Wed 01:30:11 PM 32.0690 -105.4330 90° East 519 597 39,000  Level FlightAware ADS-B
Wed 01:30:47 PM 32.0690 -105.3460 90° East 519 597 39,000  Level FlightAware ADS-B
Wed 01:31:38 PM 32.0690 -105.2230 90° East 519 597 39,000  Level FlightAware ADS-B
Wed 01:32:15 PM 32.0690 -105.1340 90° East 519 597 39,000  Level FlightAware ADS-B
Wed 01:32:54 PM 32.0690 -105.0400 90° East 519 597 39,000  Level FlightAware ADS-B
Wed 01:33:42 PM 32.0690 -104.9250 90° East 519 597 39,000  Level FlightAware ADS-B
Wed 01:34:19 PM 32.0690 -104.8360 90° East 519 597 39,000  Level FlightAware ADS-B
Wed 01:35:08 PM 32.0690 -104.7180 90° East 519 597 39,000  Level FlightAware ADS-B
Wed 01:35:44 PM 32.1386 -104.4169 90° East 519 597 39,000  Level Albuquerque Center
Wed 01:36:46 PM 32.1456 -104.2500 87° East 514 592 39,000  Level Albuquerque Center
Wed 01:37:48 PM 32.1522 -104.0814 87° East 513 590 39,000  Level Albuquerque Center
Wed 01:38:50 PM 32.1581 -103.8992 88° East 513 590 39,000  Level Albuquerque Center
Wed 01:39:52 PM 32.1644 -103.7328 87° East 511 588 39,000  Level Albuquerque Center
Wed 01:40:53 PM 32.1700 -103.5656 88° East 511 588 39,000  Level Albuquerque Center
Wed 01:46:56 PM 32.1992 -102.5190 88° East 517 595 39,000  Level FlightAware ADS-B
Wed 01:47:27 PM 32.2013 -102.4320 88° East 516 594 39,000  Level FlightAware ADS-B
Wed 01:47:57 PM 32.2033 -102.3480 88° East 516 594 39,000  Level FlightAware ADS-B
Wed 01:48:27 PM 32.2052 -102.2630 88° East 515 593 39,000  Level FlightAware ADS-B
Wed 01:48:58 PM 32.2071 -102.1760 88° East 516 594 39,000  Level FlightAware ADS-B
Wed 01:49:28 PM 32.2088 -102.0890 89° East 516 594 39,000  Level FlightAware ADS-B
Wed 01:49:59 PM 32.2107 -102.0050 88° East 515 593 39,000  Level FlightAware ADS-B
Wed 01:50:29 PM 32.2123 -101.9210 89° East 515 593 39,000  Level FlightAware ADS-B
Wed 01:51:03 PM 32.2142 -101.8220 89° East 514 592 39,000  Level FlightAware ADS-B
Wed 01:51:34 PM 32.2157 -101.7390 89° East 514 592 39,000  Level FlightAware ADS-B
Wed 01:52:05 PM 32.2173 -101.6520 89° East 514 592 39,000  Level FlightAware ADS-B
Wed 01:52:37 PM 32.2188 -101.5620 89° East 515 593 39,000  Level FlightAware ADS-B
Wed 01:53:08 PM 32.2202 -101.4750 89° East 515 593 39,000  Level FlightAware ADS-B
Wed 01:53:38 PM 32.2216 -101.3910 89° East 516 594 39,000  Level FlightAware ADS-B
Wed 01:54:09 PM 32.2229 -101.3030 89° East 518 596 39,000  Level FlightAware ADS-B
Wed 01:54:46 PM 32.2244 -101.1990 89° East 519 597 39,000  Level FlightAware ADS-B
Wed 01:55:18 PM 32.2256 -101.1080 89° East 518 596 39,000  Level FlightAware ADS-B
Wed 01:56:01 PM 32.2271 -100.9870 89° East 518 596 39,000  Level FlightAware ADS-B
Wed 01:56:41 PM 32.2284 -100.8740 89° East 519 597 39,000  Level FlightAware ADS-B
Wed 01:57:12 PM 32.2293 -100.7860 89° East 518 596 39,000  Level FlightAware ADS-B
Wed 01:57:42 PM 32.2302 -100.7010 89° East 516 594 39,000  Level FlightAware ADS-B
Wed 01:58:24 PM 32.2310 -100.5920 89° East 513 590 39,000  Level FlightAware ADS-B
Wed 01:59:10 PM 32.2320 -100.4610 89° East 507 583 39,000  Level FlightAware ADS-B
Wed 01:59:46 PM 32.2330 -100.3570 89° East 502 578 39,000  Level FlightAware ADS-B
Wed 02:00:31 PM 32.2340 -100.2670 89° East 499 574 39,000  Level FlightAware ADS-B
Wed 02:01:00 PM 32.2344 -100.1560 90° East 494 568 39,000  Level FlightAware ADS-B
Wed 02:01:41 PM 32.2351 -100.0460 90° East 489 563 39,000  Level FlightAware ADS-B
Wed 02:02:12 PM 32.2354 -99.9638 90° East 487 560 39,000  Level FlightAware ADS-B
Wed 02:02:59 PM 32.2352 -99.8393 90° East 485 558 39,000  Level FlightAware ADS-B
Wed 02:03:12 PM 32.2335 -99.8023 93° East 487 560 39,000 -146 Level FlightAware ADS-B
Wed 02:03:40 PM 32.2196 -99.7322 103° East 491 565 38,900 -750 Descending FlightAware ADS-B
Wed 02:04:32 PM 32.1510 -99.6210 126° Southeast 494 568 38,000 -1,023 Descending FlightAware ADS-B
Wed 02:05:08 PM 32.0900 -99.5570 138° Southeast 500 575 37,400 -1,227 Descending FlightAware ADS-B
Wed 02:06:00 PM 32.0260 -99.4380 122° Southeast 502 578 36,200 -2,022 Descending FlightAware ADS-B
Wed 02:06:40 PM 32.0080 -99.3310 101° East 499 574 34,300 -2,488 Descending FlightAware ADS-B
Wed 02:07:22 PM 31.9950 -99.2170 98° East 487 560 32,800 -2,069 Descending FlightAware ADS-B
Wed 02:08:07 PM 31.9830 -99.1020 97° East 476 548 31,300 -1,829 Descending FlightAware ADS-B
Wed 02:08:44 PM 31.9720 -99.0090 98° East 461 531 30,300 -1,835 Descending FlightAware ADS-B
Wed 02:09:32 PM 31.9590 -98.8880 97° East 450 518 28,700 -2,182 Descending FlightAware ADS-B
Wed 02:10:12 PM 31.9470 -98.7920 98° East 450 518 27,100 -2,000 Descending FlightAware ADS-B
Wed 02:11:02 PM 31.9350 -98.6970 98° East 448 516 25,700 -1,860 Descending FlightAware ADS-B
Wed 02:11:52 PM 31.9180 -98.5530 98° East 428 493 24,000 -1,882 Descending FlightAware ADS-B
Wed 02:12:44 PM 31.9170 -98.4350 91° East 412 474 22,500 -1,768 Descending FlightAware ADS-B
Wed 02:13:27 PM 31.9370 -98.3420 76° East 403 464 21,200 -1,786 Descending FlightAware ADS-B
Wed 02:14:08 PM 31.9610 -98.2610 71° East 394 453 20,000 -1,765 Descending FlightAware ADS-B
Wed 02:14:52 PM 31.9900 -98.1710 69° East 385 443 18,700 -1,618 Descending FlightAware ADS-B
Wed 02:15:37 PM 32.0220 -98.0850 66° East 380 437 17,600 -1,350 Descending FlightAware ADS-B
Wed 02:16:12 PM 32.0470 -98.0220 65° Northeast 374 430 16,900 -975 Descending FlightAware ADS-B
Wed 02:16:57 PM 32.0830 -97.9380 63° Northeast 357 411 16,300 -667 Descending FlightAware ADS-B
Wed 02:17:42 PM 32.1180 -97.8630 61° Northeast 356 410 15,900 -552 Descending FlightAware ADS-B
Wed 02:18:24 PM 32.1520 -97.7920 60° Northeast 356 410 15,500 -585 Descending FlightAware ADS-B
Wed 02:19:04 PM 32.1850 -97.7250 60° Northeast 355 409 15,100 -600 Descending FlightAware ADS-B
Wed 02:19:44 PM 32.2240 -97.6610 54° Northeast 356 410 14,700 -480 Descending FlightAware ADS-B
Wed 02:20:44 PM 32.2660 -97.5970 52° Northeast 352 405 14,300 -1,118 Descending FlightAware ADS-B
Wed 02:21:26 PM 32.3280 -97.5080 50° Northeast 355 409 12,800 -1,630 Descending FlightAware ADS-B
Wed 02:22:05 PM 32.3730 -97.4610 41° Northeast 348 400 12,100 -878 Descending FlightAware ADS-B
Wed 02:22:48 PM 32.4410 -97.4350 18° North 336 387 11,600 -767 Descending FlightAware ADS-B
Wed 02:23:31 PM 32.5020 -97.4150 15° North 316 364 11,000 -525 Descending FlightAware ADS-B
Wed 02:24:08 PM 32.5530 -97.3970 17° North 302 348 10,900 -109 Descending FlightAware ADS-B
Wed 02:24:26 PM 32.5750 -97.3810 32° Northeast 306 352 10,900 200 Level FlightAware ADS-B
Wed 02:24:38 PM 32.5880 -97.3670 42° Northeast 304 350 11,000  Climbing FlightAware ADS-B
Wed 02:25:48 PM 32.6220 -97.3270 45° Northeast 304 350 10,900 -39 Descending FlightAware ADS-B
Wed 02:27:10 PM 32.7370 -97.1850 46° Northeast 305 351 10,900  Level FlightAware ADS-B
Wed 02:27:40 PM 32.7750 -97.1690 19° North 298 343 10,900 -429 Level FlightAware ADS-B
Wed 02:28:20 PM 32.8290 -97.1670 North 274 315 10,400 -750 Descending FlightAware ADS-B
Wed 02:29:00 PM 32.8770 -97.1670 360° North 250 288 9,900 -900 Descending FlightAware ADS-B
Wed 02:29:20 PM 32.8990 -97.1670 360° North 249 287 9,500 -1,200 Descending FlightAware ADS-B
Wed 02:29:50 PM 32.9320 -97.1660 North 250 288 8,900 -1,350 Descending FlightAware ADS-B
Wed 02:30:00 PM 32.9470 -97.1660 360° North 249 287 8,600 -1,200 Descending FlightAware ADS-B
Wed 02:30:10 PM 32.9570 -97.1650 North 248 285 8,500 -1,200 Descending FlightAware ADS-B
Wed 02:30:45 PM 32.9980 -97.1640 North 244 281 7,700 -1,294 Descending FlightAware ADS-B
Wed 02:31:01 PM 33.0140 -97.1640 360° North 241 277 7,400 -1,050 Descending FlightAware ADS-B
Wed 02:31:25 PM 33.0420 -97.1630 North 237 273 7,000 -1,102 Descending FlightAware ADS-B
Wed 02:31:50 PM 33.0670 -97.1630 360° North 235 270 6,500 -1,200 Descending FlightAware ADS-B
Wed 02:32:10 PM 33.0880 -97.1620 North 233 268 6,100 -1,067 Descending FlightAware ADS-B
Wed 02:32:35 PM 33.1170 -97.1620 360° North 222 255 5,700 -600 Descending FlightAware ADS-B
Wed 02:33:20 PM 33.1600 -97.1540 North 217 250 5,400 -400 Descending FlightAware ADS-B
Wed 02:33:35 PM 33.1670 -97.1420 55° Northeast 215 247 5,300 -566 Descending FlightAware ADS-B
Wed 02:34:13 PM 33.1590 -97.0980 102° East 205 236 4,900 -716 Descending FlightAware ADS-B
Wed 02:34:42 PM 33.1400 -97.0740 133° Southeast 195 224 4,500 -732 Descending FlightAware ADS-B
Wed 02:34:54 PM 33.1320 -97.0650 137° Southeast 195 224 4,400 -450 Descending FlightAware ADS-B
Wed 02:35:22 PM 33.1090 -97.0550 160° South 190 219 4,200 -692 Descending FlightAware ADS-B
Wed 02:35:46 PM 33.0870 -97.0540 178° South 190 219 3,800 -1,000 Descending FlightAware ADS-B
Wed 02:36:22 PM 33.0550 -97.0540 180° South 192 221 3,200 -1,000 Descending FlightAware ADS-B
Wed 02:36:46 PM 33.0340 -97.0540 180° South 192 221 2,800 -894 Descending FlightAware ADS-B
Wed 02:37:09 PM 33.0140 -97.0540 180° South 185 213 2,500 -923 Descending FlightAware ADS-B
Wed 02:37:38 PM 32.9910 -97.0540 180° South 173 199 2,000 -600 Descending FlightAware ADS-B
Wed 02:38:49 PM 32.9460 -97.0540 180° South 147 169 1,500 -423 Descending FlightAware ADS-B

Login

Don't have an account? Register now (free) for customized features, flight alerts, and more!